Observation data for Mertzon on 03/12/2018      Previous  Date  Next       Current Mesonet Observations  Soil Data  Daily Summary Page  Observations in Plain Language
KME1 120500Z 36004KT 10/M08 A3032 RMK A01 T00981080  RH  028%=      5-min Rain = 0
KME1 120501Z 00004KT 10/M08 A3032 RMK A01 T00971081  RH  028%=      5-min Rain = 0
KME1 120502Z 36004KT 10/M08 A3032 RMK A01 T00971081  RH  028%=      5-min Rain = 0
KME1 120503Z 36004KT 10/M08 A3032 RMK A01 T00961080  RH  028%=      5-min Rain = 0
KME1 120504Z 00003KT 10/M08 A3032 RMK A01 T00961080  RH  028%=      5-min Rain = 0
KME1 120505Z 01003KT 10/M08 A3032 RMK A01 T00951080  RH  028%=      5-min Rain = 0
KME1 120506Z 01002KT 09/M08 A3032 RMK A01 T00941080  RH  028%=      5-min Rain = 0
KME1 120507Z 01002KT 09/M08 A3032 RMK A01 T00941079  RH  029%=      5-min Rain = 0
KME1 120508Z 00002KT 09/M08 A3032 RMK A01 T00931078  RH  029%=      5-min Rain = 0
KME1 120509Z 01003KT 09/M08 A3032 RMK A01 T00921079  RH  029%=      5-min Rain = 0
KME1 120510Z 02002KT 09/M08 A3032 RMK A01 T00911079  RH  029%=      5-min Rain = 0
KME1 120511Z 02002KT 09/M08 A3032 RMK A01 T00901079  RH  029%=      5-min Rain = 0
KME1 120512Z 02002KT 09/M08 A3032 RMK A01 T00901079  RH  030%=      5-min Rain = 0
KME1 120513Z 02002KT 09/M08 A3032 RMK A01 T00891076  RH  030%=      5-min Rain = 0
KME1 120514Z 01001KT 09/M08 A3032 RMK A01 T00891077  RH  030%=      5-min Rain = 0
KME1 120515Z 01003KT 09/M08 A3032 RMK A01 T00881078  RH  030%=      5-min Rain = 0
KME1 120516Z 00002KT 09/M08 A3032 RMK A01 T00881078  RH  030%=      5-min Rain = 0
KME1 120517Z 36003KT 09/M08 A3032 RMK A01 T00881077  RH  030%=      5-min Rain = 0
KME1 120518Z 35003KT 09/M08 A3032 RMK A01 T00881076  RH  030%=      5-min Rain = 0
KME1 120519Z 35003KT 09/M08 A3032 RMK A01 T00881075  RH  031%=      5-min Rain = 0
KME1 120520Z 35003KT 09/M08 A3032 RMK A01 T00871075  RH  031%=      5-min Rain = 0
KME1 120521Z 35004KT 09/M08 A3032 RMK A01 T00871075  RH  031%=      5-min Rain = 0
KME1 120522Z 34004KT 09/M08 A3032 RMK A01 T00871075  RH  031%=      5-min Rain = 0
KME1 120523Z 35004KT 09/M08 A3032 RMK A01 T00871075  RH  031%=      5-min Rain = 0
KME1 120524Z 35004KT 09/M08 A3032 RMK A01 T00871075  RH  031%=      5-min Rain = 0
KME1 120525Z 35005KT 09/M08 A3032 RMK A01 T00871075  RH  031%=      5-min Rain = 0
KME1 120526Z 35004KT 09/M08 A3032 RMK A01 T00871076  RH  031%=      5-min Rain = 0
KME1 120527Z 35005KT 09/M08 A3032 RMK A01 T00871076  RH  031%=      5-min Rain = 0
KME1 120528Z 35005KT 09/M08 A3032 RMK A01 T00881076  RH  031%=      5-min Rain = 0
KME1 120529Z 35005KT 09/M08 A3032 RMK A01 T00881077  RH  030%=      5-min Rain = 0
KME1 120530Z 35006KT 09/M08 A3032 RMK A01 T00881077  RH  030%=      5-min Rain = 0
KME1 120531Z 35006KT 09/M08 A3032 RMK A01 T00891077  RH  030%=      5-min Rain = 0
KME1 120532Z 35005KT 09/M08 A3032 RMK A01 T00891077  RH  030%=      5-min Rain = 0
KME1 120533Z 35005KT 09/M08 A3032 RMK A01 T00901077  RH  030%=      5-min Rain = 0
KME1 120534Z 35006KT 09/M08 A3032 RMK A01 T00891077  RH  030%=      5-min Rain = 0
KME1 120535Z 36005KT 09/M08 A3032 RMK A01 T00891077  RH  030%=      5-min Rain = 0
KME1 120536Z 36005KT 09/M08 A3032 RMK A01 T00891077  RH  030%=      5-min Rain = 0
KME1 120537Z 36005KT 09/M08 A3032 RMK A01 T00891077  RH  030%=      5-min Rain = 0
KME1 120538Z 00006KT 09/M08 A3032 RMK A01 T00891077  RH  030%=      5-min Rain = 0
KME1 120539Z 36006KT 09/M08 A3032 RMK A01 T00881077  RH  030%=      5-min Rain = 0
KME1 120540Z 00005KT 09/M08 A3032 RMK A01 T00881077  RH  030%=      5-min Rain = 0
KME1 120541Z 36005KT 09/M08 A3032 RMK A01 T00881077  RH  030%=      5-min Rain = 0
KME1 120542Z 00006KT 09/M08 A3032 RMK A01 T00871077  RH  030%=      5-min Rain = 0
KME1 120543Z 00006KT 09/M08 A3032 RMK A01 T00871078  RH  030%=      5-min Rain = 0
KME1 120544Z 36006KT 09/M08 A3032 RMK A01 T00871078  RH  030%=      5-min Rain = 0
KME1 120545Z 36006KT 09/M08 A3032 RMK A01 T00871078  RH  030%=      5-min Rain = 0
KME1 120546Z 36006KT 09/M08 A3032 RMK A01 T00871078  RH  030%=      5-min Rain = 0
KME1 120547Z 35006KT 09/M08 A3032 RMK A01 T00871078  RH  030%=      5-min Rain = 0
KME1 120548Z 36006KT 09/M08 A3032 RMK A01 T00871078  RH  030%=      5-min Rain = 0
KME1 120549Z 35007KT 09/M08 A3032 RMK A01 T00871079  RH  030%=      5-min Rain = 0
KME1 120550Z 35006KT 09/M08 A3032 RMK A01 T00871079  RH  030%=      5-min Rain = 0
KME1 120551Z 35006KT 09/M08 A3032 RMK A01 T00871079  RH  030%=      5-min Rain = 0
KME1 120552Z 35006KT 09/M08 A3033 RMK A01 T00871079  RH  030%=      5-min Rain = 0
KME1 120553Z 35006KT 09/M08 A3033 RMK A01 T00871078  RH  030%=      5-min Rain = 0
KME1 120554Z 35006KT 09/M08 A3033 RMK A01 T00871078  RH  030%=      5-min Rain = 0
KME1 120555Z 35006KT 09/M08 A3033 RMK A01 T00861077  RH  031%=      5-min Rain = 0
KME1 120556Z 35005KT 09/M08 A3032 RMK A01 T00861077  RH  031%=      5-min Rain = 0
KME1 120557Z 35005KT 09/M08 A3032 RMK A01 T00851077  RH  031%=      5-min Rain = 0
KME1 120558Z 35004KT 09/M08 A3032 RMK A01 T00851077  RH  031%=      5-min Rain = 0
KME1 120559Z 36005KT 09/M08 A3032 RMK A01 T00851076  RH  031%=      5-min Rain = 0
KME1 120600Z 36005KT 09/M08 A3032 RMK A01 T00851076  RH  031%=      5-min Rain = 0
KME1 120601Z 00005KT 09/M08 A3032 RMK A01 T00851076  RH  031%=      5-min Rain = 0
KME1 120602Z 01005KT 09/M08 A3032 RMK A01 T00851076  RH  031%=      5-min Rain = 0
KME1 120603Z 00005KT 09/M08 A3032 RMK A01 T00851076  RH  031%=      5-min Rain = 0
KME1 120604Z 01004KT 09/M08 A3032 RMK A01 T00851076  RH  031%=      5-min Rain = 0
KME1 120605Z 00004KT 09/M08 A3032 RMK A01 T00851076  RH  031%=      5-min Rain = 0
KME1 120606Z 00005KT 08/M08 A3032 RMK A01 T00841075  RH  031%=      5-min Rain = 0
KME1 120607Z 00005KT 08/M08 A3032 RMK A01 T00841075  RH  032%=      5-min Rain = 0
KME1 120608Z 00005KT 08/M08 A3032 RMK A01 T00841075  RH  032%=      5-min Rain = 0
KME1 120609Z 36005KT 08/M08 A3032 RMK A01 T00841075  RH  032%=      5-min Rain = 0
KME1 120610Z 00006KT 08/M08 A3032 RMK A01 T00841076  RH  031%=      5-min Rain = 0
KME1 120611Z 00005KT 08/M08 A3032 RMK A01 T00841076  RH  031%=      5-min Rain = 0
KME1 120612Z 36006KT 08/M08 A3032 RMK A01 T00841076  RH  031%=      5-min Rain = 0
KME1 120613Z 35005KT 08/M08 A3032 RMK A01 T00841076  RH  031%=      5-min Rain = 0
KME1 120614Z 36005KT 08/M08 A3032 RMK A01 T00841076  RH  031%=      5-min Rain = 0
KME1 120615Z 35005KT 08/M08 A3032 RMK A01 T00841076  RH  031%=      5-min Rain = 0
KME1 120616Z 35005KT 08/M08 A3032 RMK A01 T00841076  RH  031%=      5-min Rain = 0
KME1 120617Z 34005KT 08/M08 A3032 RMK A01 T00841076  RH  031%=      5-min Rain = 0
KME1 120618Z 35005KT 08/M08 A3032 RMK A01 T00841076  RH  032%=      5-min Rain = 0
KME1 120619Z 35005KT 08/M08 A3032 RMK A01 T00841075  RH  032%=      5-min Rain = 0
KME1 120620Z 35005KT 08/M08 A3032 RMK A01 T00831075  RH  032%=      5-min Rain = 0
KME1 120621Z 35004KT 08/M08 A3032 RMK A01 T00831075  RH  032%=      5-min Rain = 0
KME1 120622Z 35004KT 08/M08 A3032 RMK A01 T00821075  RH  032%=      5-min Rain = 0
KME1 120623Z 35004KT 08/M08 A3032 RMK A01 T00821075  RH  032%=      5-min Rain = 0
KME1 120624Z 35004KT 08/M07 A3032 RMK A01 T00811074  RH  032%=      5-min Rain = 0
KME1 120625Z 34004KT 08/M07 A3032 RMK A01 T00811074  RH  033%=      5-min Rain = 0
KME1 120626Z 34005KT 08/M07 A3032 RMK A01 T00801074  RH  033%=      5-min Rain = 0
KME1 120627Z 34005KT 08/M07 A3032 RMK A01 T00791074  RH  033%=      5-min Rain = 0
KME1 120628Z 34005KT 08/M07 A3032 RMK A01 T00791074  RH  033%=      5-min Rain = 0
KME1 120629Z 34005KT 08/M07 A3032 RMK A01 T00781074  RH  033%=      5-min Rain = 0
KME1 120630Z 34005KT 08/M07 A3032 RMK A01 T00781073  RH  033%=      5-min Rain = 0
KME1 120631Z 35005KT 08/M07 A3032 RMK A01 T00771074  RH  034%=      5-min Rain = 0
KME1 120632Z 35005KT 08/M07 A3032 RMK A01 T00771074  RH  034%=      5-min Rain = 0
KME1 120633Z 35005KT 08/M07 A3032 RMK A01 T00761074  RH  034%=      5-min Rain = 0
KME1 120634Z 35005KT 08/M07 A3032 RMK A01 T00761073  RH  034%=      5-min Rain = 0
KME1 120635Z 36005KT 08/M07 A3032 RMK A01 T00761073  RH  034%=      5-min Rain = 0
KME1 120636Z 36006KT 08/M07 A3032 RMK A01 T00751073  RH  034%=      5-min Rain = 0
KME1 120637Z 36006KT 08/M07 A3032 RMK A01 T00751073  RH  034%=      5-min Rain = 0
KME1 120638Z 00006KT 08/M07 A3032 RMK A01 T00751073  RH  034%=      5-min Rain = 0
KME1 120639Z 00006KT 08/M07 A3032 RMK A01 T00751074  RH  034%=      5-min Rain = 0
KME1 120640Z 00006KT 08/M07 A3032 RMK A01 T00751074  RH  034%=      5-min Rain = 0
KME1 120641Z 01006KT 08/M07 A3032 RMK A01 T00761074  RH  034%=      5-min Rain = 0
KME1 120642Z 01007KT 08/M07 A3032 RMK A01 T00761074  RH  034%=      5-min Rain = 0
KME1 120643Z 01007KT 08/M07 A3032 RMK A01 T00771074  RH  033%=      5-min Rain = 0
KME1 120644Z 01006KT 08/M07 A3033 RMK A01 T00781074  RH  033%=      5-min Rain = 0
KME1 120645Z 00005KT 08/M07 A3033 RMK A01 T00791074  RH  033%=      5-min Rain = 0
KME1 120646Z 01006KT 08/M07 A3033 RMK A01 T00791074  RH  033%=      5-min Rain = 0
KME1 120647Z 00006KT 08/M07 A3033 RMK A01 T00791074  RH  033%=      5-min Rain = 0
KME1 120648Z 01006KT 08/M07 A3033 RMK A01 T00781074  RH  033%=      5-min Rain = 0
KME1 120649Z 01006KT 08/M07 A3033 RMK A01 T00781073  RH  033%=      5-min Rain = 0
KME1 120650Z 01006KT 08/M07 A3033 RMK A01 T00781073  RH  033%=      5-min Rain = 0
KME1 120651Z 02005KT 08/M07 A3033 RMK A01 T00781073  RH  034%=      5-min Rain = 0
KME1 120652Z 02005KT 08/M07 A3033 RMK A01 T00771073  RH  034%=      5-min Rain = 0
KME1 120653Z 02005KT 08/M07 A3033 RMK A01 T00761073  RH  034%=      5-min Rain = 0
KME1 120654Z 02004KT 08/M07 A3033 RMK A01 T00751073  RH  034%=      5-min Rain = 0
KME1 120655Z 02004KT 08/M07 A3033 RMK A01 T00751073  RH  034%=      5-min Rain = 0
KME1 120656Z 03004KT 08/M07 A3033 RMK A01 T00751073  RH  034%=      5-min Rain = 0
KME1 120657Z 02004KT 08/M07 A3033 RMK A01 T00751073  RH  034%=      5-min Rain = 0
KME1 120658Z 03003KT 07/M07 A3033 RMK A01 T00741073  RH  034%=      5-min Rain = 0
KME1 120659Z 03004KT 07/M07 A3033 RMK A01 T00731073  RH  034%=      5-min Rain = 0
KME1 120700Z 02003KT 07/M07 A3033 RMK A01 T00721074  RH  035%=      5-min Rain = 0
KME1 120701Z 02003KT 07/M07 A3033 RMK A01 T00721073  RH  035%=      5-min Rain = 0
KME1 120702Z 02002KT 07/M07 A3033 RMK A01 T00711073  RH  035%=      5-min Rain = 0
KME1 120703Z 02004KT 07/M07 A3033 RMK A01 T00711074  RH  035%=      5-min Rain = 0
KME1 120704Z 02004KT 07/M07 A3033 RMK A01 T00711073  RH  035%=      5-min Rain = 0
KME1 120705Z 03004KT 07/M07 A3033 RMK A01 T00721073  RH  035%=      5-min Rain = 0
KME1 120706Z 03003KT 07/M07 A3033 RMK A01 T00711073  RH  035%=      5-min Rain = 0
KME1 120707Z 03004KT 07/M07 A3033 RMK A01 T00711072  RH  035%=      5-min Rain = 0
KME1 120708Z 03004KT 07/M07 A3033 RMK A01 T00701073  RH  036%=      5-min Rain = 0
KME1 120709Z 03004KT 07/M07 A3033 RMK A01 T00701072  RH  036%=      5-min Rain = 0
KME1 120710Z 03003KT 07/M07 A3033 RMK A01 T00701072  RH  036%=      5-min Rain = 0
KME1 120711Z 04003KT 07/M07 A3033 RMK A01 T00701072  RH  036%=      5-min Rain = 0
KME1 120712Z 04003KT 07/M07 A3033 RMK A01 T00701071  RH  036%=      5-min Rain = 0
KME1 120713Z 04003KT 07/M07 A3033 RMK A01 T00701071  RH  036%=      5-min Rain = 0
KME1 120714Z 04003KT 07/M07 A3033 RMK A01 T00691071  RH  036%=      5-min Rain = 0
KME1 120715Z 04002KT 07/M07 A3033 RMK A01 T00691071  RH  036%=      5-min Rain = 0
KME1 120716Z 04002KT 07/M07 A3033 RMK A01 T00681071  RH  036%=      5-min Rain = 0
KME1 120717Z 03002KT 07/M07 A3033 RMK A01 T00681071  RH  036%=      5-min Rain = 0
KME1 120718Z 04002KT 07/M07 A3033 RMK A01 T00681070  RH  037%=      5-min Rain = 0
KME1 120719Z 03002KT 07/M07 A3033 RMK A01 T00671071  RH  037%=      5-min Rain = 0
KME1 120720Z 03001KT 07/M07 A3033 RMK A01 T00681070  RH  037%=      5-min Rain = 0
KME1 120721Z 04001KT 07/M07 A3033 RMK A01 T00671070  RH  037%=      5-min Rain = 0
KME1 120722Z 02001KT 07/M07 A3033 RMK A01 T00671069  RH  037%=      5-min Rain = 0
KME1 120723Z 02001KT 07/M07 A3033 RMK A01 T00671069  RH  037%=      5-min Rain = 0
KME1 120724Z 03001KT 07/M07 A3033 RMK A01 T00681069  RH  037%=      5-min Rain = 0
KME1 120725Z 01001KT 07/M07 A3033 RMK A01 T00681067  RH  037%=      5-min Rain = 0
KME1 120726Z 01001KT 07/M07 A3033 RMK A01 T00691066  RH  038%=      5-min Rain = 0
KME1 120727Z 01002KT 07/M07 A3033 RMK A01 T00681066  RH  038%=      5-min Rain = 0
KME1 120728Z 02002KT 07/M07 A3033 RMK A01 T00691066  RH  038%=      5-min Rain = 0
KME1 120729Z 01003KT 07/M07 A3033 RMK A01 T00691066  RH  038%=      5-min Rain = 0
KME1 120730Z 02003KT 07/M07 A3033 RMK A01 T00701065  RH  038%=      5-min Rain = 0
KME1 120731Z 02003KT 07/M06 A3033 RMK A01 T00701064  RH  038%=      5-min Rain = 0
KME1 120732Z 02003KT 07/M06 A3033 RMK A01 T00701064  RH  038%=      5-min Rain = 0
KME1 120733Z 02003KT 07/M06 A3033 RMK A01 T00701063  RH  038%=      5-min Rain = 0
KME1 120734Z 02003KT 07/M06 A3033 RMK A01 T00691063  RH  038%=      5-min Rain = 0
KME1 120735Z 03003KT 07/M06 A3033 RMK A01 T00691062  RH  039%=      5-min Rain = 0
KME1 120736Z 02004KT 07/M06 A3033 RMK A01 T00691062  RH  039%=      5-min Rain = 0
KME1 120737Z 02004KT 07/M06 A3033 RMK A01 T00681062  RH  039%=      5-min Rain = 0
KME1 120738Z 02003KT 07/M06 A3033 RMK A01 T00681061  RH  039%=      5-min Rain = 0
KME1 120739Z 02004KT 07/M06 A3033 RMK A01 T00671062  RH  039%=      5-min Rain = 0
KME1 120740Z 02004KT 07/M06 A3033 RMK A01 T00671061  RH  040%=      5-min Rain = 0
KME1 120741Z 02003KT 07/M06 A3033 RMK A01 T00661061  RH  040%=      5-min Rain = 0
KME1 120742Z 02003KT 07/M06 A3033 RMK A01 T00651061  RH  040%=      5-min Rain = 0
KME1 120743Z 02003KT 07/M06 A3033 RMK A01 T00651061  RH  040%=      5-min Rain = 0
KME1 120744Z 02003KT 07/M06 A3033 RMK A01 T00651060  RH  040%=      5-min Rain = 0
KME1 120745Z 02003KT 07/M06 A3033 RMK A01 T00651060  RH  040%=      5-min Rain = 0
KME1 120746Z 01003KT 06/M06 A3033 RMK A01 T00641060  RH  041%=      5-min Rain = 0
KME1 120747Z 01003KT 06/M06 A3033 RMK A01 T00641060  RH  041%=      5-min Rain = 0
KME1 120748Z 01002KT 06/M06 A3033 RMK A01 T00641059  RH  041%=      5-min Rain = 0
KME1 120749Z 01003KT 06/M06 A3033 RMK A01 T00641060  RH  041%=      5-min Rain = 0
KME1 120750Z 01002KT 06/M06 A3034 RMK A01 T00641060  RH  041%=      5-min Rain = 0
KME1 120751Z 01002KT 06/M06 A3034 RMK A01 T00641060  RH  041%=      5-min Rain = 0
KME1 120752Z 01002KT 06/M06 A3034 RMK A01 T00641060  RH  041%=      5-min Rain = 0
KME1 120753Z 01002KT 06/M06 A3034 RMK A01 T00641060  RH  041%=      5-min Rain = 0
KME1 120754Z 00002KT 06/M06 A3034 RMK A01 T00641059  RH  041%=      5-min Rain = 0
KME1 120755Z 35002KT 06/M06 A3034 RMK A01 T00641060  RH  041%=      5-min Rain = 0
KME1 120756Z 35002KT 06/M06 A3034 RMK A01 T00641060  RH  041%=      5-min Rain = 0
KME1 120757Z 35002KT 06/M06 A3034 RMK A01 T00631061  RH  041%=      5-min Rain = 0
KME1 120758Z 36003KT 06/M06 A3034 RMK A01 T00631059  RH  041%=      5-min Rain = 0
KME1 120759Z 36003KT 06/M06 A3033 RMK A01 T00621059  RH  042%=      5-min Rain = 0
KME1 120800Z 35003KT 06/M06 A3033 RMK A01 T00611059  RH  042%=      5-min Rain = 0
KME1 120801Z 36003KT 06/M06 A3033 RMK A01 T00611059  RH  042%=      5-min Rain = 0
KME1 120802Z 36003KT 06/M06 A3034 RMK A01 T00611059  RH  042%=      5-min Rain = 0
KME1 120803Z 36003KT 06/M06 A3034 RMK A01 T00601059  RH  042%=      5-min Rain = 0
KME1 120804Z 36003KT 06/M06 A3034 RMK A01 T00601059  RH  042%=      5-min Rain = 0
KME1 120805Z 35003KT 06/M06 A3034 RMK A01 T00601059  RH  042%=      5-min Rain = 0
KME1 120806Z 35003KT 06/M06 A3034 RMK A01 T00591059  RH  042%=      5-min Rain = 0
KME1 120807Z 35004KT 06/M06 A3034 RMK A01 T00591059  RH  042%=      5-min Rain = 0
KME1 120808Z 00004KT 06/M06 A3034 RMK A01 T00581059  RH  043%=      5-min Rain = 0
KME1 120809Z 00005KT 06/M06 A3034 RMK A01 T00571058  RH  043%=      5-min Rain = 0
KME1 120810Z 01005KT 06/M06 A3033 RMK A01 T00561058  RH  044%=      5-min Rain = 0
KME1 120811Z 01005KT 06/M06 A3033 RMK A01 T00551057  RH  044%=      5-min Rain = 0
KME1 120812Z 01006KT 05/M06 A3033 RMK A01 T00541056  RH  045%=      5-min Rain = 0
KME1 120813Z 01006KT 05/M06 A3033 RMK A01 T00541056  RH  045%=      5-min Rain = 0
KME1 120814Z 01006KT 05/M06 A3033 RMK A01 T00531056  RH  045%=      5-min Rain = 0
KME1 120815Z 01006KT 05/M06 A3033 RMK A01 T00531056  RH  045%=      5-min Rain = 0
KME1 120816Z 01006KT 05/M06 A3033 RMK A01 T00531056  RH  045%=      5-min Rain = 0
KME1 120817Z 01007KT 05/M06 A3033 RMK A01 T00521056  RH  046%=      5-min Rain = 0
KME1 120818Z 01006KT 05/M06 A3033 RMK A01 T00521056  RH  046%=      5-min Rain = 0
KME1 120819Z 01006KT 05/M06 A3033 RMK A01 T00511055  RH  046%=      5-min Rain = 0
KME1 120820Z 01006KT 05/M06 A3033 RMK A01 T00511056  RH  046%=      5-min Rain = 0
KME1 120821Z 01006KT 05/M06 A3033 RMK A01 T00511055  RH  046%=      5-min Rain = 0
KME1 120822Z 00006KT 05/M06 A3033 RMK A01 T00511055  RH  046%=      5-min Rain = 0
KME1 120823Z 00006KT 05/M06 A3033 RMK A01 T00521055  RH  046%=      5-min Rain = 0
KME1 120824Z 36006KT 05/M06 A3033 RMK A01 T00521055  RH  046%=      5-min Rain = 0
KME1 120825Z 36006KT 05/M06 A3033 RMK A01 T00521055  RH  046%=      5-min Rain = 0
KME1 120826Z 36006KT 05/M06 A3033 RMK A01 T00531055  RH  046%=      5-min Rain = 0
KME1 120827Z 36006KT 05/M06 A3033 RMK A01 T00541055  RH  046%=      5-min Rain = 0
KME1 120828Z 36006KT 05/M06 A3033 RMK A01 T00541055  RH  045%=      5-min Rain = 0
KME1 120829Z 35006KT 06/M05 A3033 RMK A01 T00551054  RH  045%=      5-min Rain = 0
KME1 120830Z 35006KT 06/M05 A3033 RMK A01 T00551054  RH  045%=      5-min Rain = 0
KME1 120831Z 36005KT 06/M05 A3033 RMK A01 T00561054  RH  045%=      5-min Rain = 0
KME1 120832Z 35005KT 06/M05 A3033 RMK A01 T00561054  RH  045%=      5-min Rain = 0
KME1 120833Z 35005KT 06/M05 A3033 RMK A01 T00561054  RH  045%=      5-min Rain = 0
KME1 120834Z 35005KT 06/M05 A3034 RMK A01 T00561054  RH  045%=      5-min Rain = 0
KME1 120835Z 35005KT 06/M05 A3034 RMK A01 T00571054  RH  045%=      5-min Rain = 0
KME1 120836Z 35005KT 06/M05 A3034 RMK A01 T00571054  RH  045%=      5-min Rain = 0
KME1 120837Z 35005KT 06/M05 A3033 RMK A01 T00571054  RH  045%=      5-min Rain = 0
KME1 120838Z 36005KT 06/M05 A3033 RMK A01 T00571054  RH  045%=      5-min Rain = 0
KME1 120839Z 36005KT 06/M05 A3033 RMK A01 T00561054  RH  045%=      5-min Rain = 0
KME1 120840Z 36005KT 06/M05 A3033 RMK A01 T00561054  RH  045%=      5-min Rain = 0
KME1 120841Z 00005KT 06/M05 A3033 RMK A01 T00561053  RH  045%=      5-min Rain = 0
KME1 120842Z 00005KT 06/M05 A3033 RMK A01 T00551053  RH  045%=      5-min Rain = 0
KME1 120843Z 01005KT 06/M05 A3033 RMK A01 T00551053  RH  046%=      5-min Rain = 0
KME1 120844Z 01005KT 06/M05 A3033 RMK A01 T00551053  RH  046%=      5-min Rain = 0
KME1 120845Z 01005KT 05/M05 A3033 RMK A01 T00541053  RH  046%=      5-min Rain = 0
KME1 120846Z 01006KT 05/M05 A3033 RMK A01 T00541053  RH  046%=      5-min Rain = 0
KME1 120847Z 01006KT 05/M05 A3033 RMK A01 T00531053  RH  046%=      5-min Rain = 0
KME1 120848Z 01006KT 05/M05 A3033 RMK A01 T00521053  RH  047%=      5-min Rain = 0
KME1 120849Z 01006KT 05/M05 A3033 RMK A01 T00521053  RH  047%=      5-min Rain = 0
KME1 120850Z 01006KT 05/M05 A3032 RMK A01 T00511052  RH  047%=      5-min Rain = 0
KME1 120851Z 01006KT 05/M05 A3032 RMK A01 T00511052  RH  047%=      5-min Rain = 0
KME1 120852Z 01006KT 05/M05 A3032 RMK A01 T00501052  RH  048%=      5-min Rain = 0
KME1 120853Z 01006KT 05/M05 A3032 RMK A01 T00501052  RH  048%=      5-min Rain = 0
KME1 120854Z 01006KT 05/M05 A3032 RMK A01 T00501052  RH  048%=      5-min Rain = 0
KME1 120855Z 00006KT 05/M05 A3033 RMK A01 T00501051  RH  048%=      5-min Rain = 0
KME1 120856Z 00005KT 05/M05 A3033 RMK A01 T00501051  RH  048%=      5-min Rain = 0
KME1 120857Z 00005KT 05/M05 A3033 RMK A01 T00491051  RH  048%=      5-min Rain = 0
KME1 120858Z 36005KT 05/M05 A3033 RMK A01 T00491051  RH  048%=      5-min Rain = 0
KME1 120859Z 35005KT 05/M05 A3033 RMK A01 T00491051  RH  048%=      5-min Rain = 0
KME1 120900Z 35005KT 05/M05 A3033 RMK A01 T00491052  RH  048%=      5-min Rain = 0
KME1 120901Z 35005KT 05/M05 A3033 RMK A01 T00481052  RH  048%=      5-min Rain = 0
KME1 120902Z 35005KT 05/M05 A3033 RMK A01 T00481052  RH  048%=      5-min Rain = 0
KME1 120903Z 34004KT 05/M05 A3033 RMK A01 T00481052  RH  048%=      5-min Rain = 0
KME1 120904Z 35004KT 05/M05 A3033 RMK A01 T00481052  RH  048%=      5-min Rain = 0
KME1 120905Z 35004KT 05/M05 A3033 RMK A01 T00481052  RH  048%=      5-min Rain = 0
KME1 120906Z 35004KT 05/M05 A3033 RMK A01 T00481052  RH  048%=      5-min Rain = 0
KME1 120907Z 35004KT 05/M05 A3033 RMK A01 T00471053  RH  048%=      5-min Rain = 0
KME1 120908Z 35004KT 05/M05 A3033 RMK A01 T00481052  RH  048%=      5-min Rain = 0
KME1 120909Z 34004KT 05/M05 A3033 RMK A01 T00491052  RH  048%=      5-min Rain = 0
KME1 120910Z 34004KT 05/M05 A3033 RMK A01 T00491052  RH  048%=      5-min Rain = 0
KME1 120911Z 35005KT 05/M05 A3033 RMK A01 T00491052  RH  048%=      5-min Rain = 0
KME1 120912Z 35005KT 05/M05 A3033 RMK A01 T00481053  RH  048%=      5-min Rain = 0
KME1 120913Z 35005KT 05/M05 A3033 RMK A01 T00481053  RH  048%=      5-min Rain = 0
KME1 120914Z 35005KT 05/M05 A3033 RMK A01 T00481053  RH  048%=      5-min Rain = 0
KME1 120915Z 35005KT 05/M05 A3033 RMK A01 T00481053  RH  048%=      5-min Rain = 0
KME1 120916Z 35005KT 05/M05 A3033 RMK A01 T00481053  RH  048%=      5-min Rain = 0
KME1 120917Z 35006KT 05/M05 A3033 RMK A01 T00481052  RH  048%=      5-min Rain = 0
KME1 120918Z 35005KT 05/M05 A3033 RMK A01 T00481052  RH  048%=      5-min Rain = 0
KME1 120919Z 35005KT 05/M05 A3034 RMK A01 T00491052  RH  048%=      5-min Rain = 0
KME1 120920Z 35005KT 05/M05 A3034 RMK A01 T00491052  RH  048%=      5-min Rain = 0
KME1 120921Z 34005KT 05/M05 A3034 RMK A01 T00491052  RH  048%=      5-min Rain = 0
KME1 120922Z 34005KT 05/M05 A3034 RMK A01 T00491052  RH  048%=      5-min Rain = 0
KME1 120923Z 34005KT 05/M05 A3034 RMK A01 T00491052  RH  048%=      5-min Rain = 0
KME1 120924Z 33005KT 05/M05 A3034 RMK A01 T00481052  RH  048%=      5-min Rain = 0
KME1 120925Z 34005KT 05/M05 A3034 RMK A01 T00481052  RH  048%=      5-min Rain = 0
KME1 120926Z 34005KT 05/M05 A3034 RMK A01 T00481052  RH  048%=      5-min Rain = 0
KME1 120927Z 34005KT 05/M05 A3034 RMK A01 T00481052  RH  048%=      5-min Rain = 0
KME1 120928Z 35005KT 05/M05 A3033 RMK A01 T00491052  RH  048%=      5-min Rain = 0
KME1 120929Z 35005KT 05/M05 A3033 RMK A01 T00491052  RH  048%=      5-min Rain = 0
KME1 120930Z 35005KT 05/M05 A3033 RMK A01 T00491052  RH  048%=      5-min Rain = 0
KME1 120931Z 35006KT 05/M05 A3033 RMK A01 T00501052  RH  048%=      5-min Rain = 0
KME1 120932Z 35006KT 05/M05 A3033 RMK A01 T00501051  RH  048%=      5-min Rain = 0
KME1 120933Z 35006KT 05/M05 A3033 RMK A01 T00511051  RH  048%=      5-min Rain = 0
KME1 120934Z 35006KT 05/M05 A3033 RMK A01 T00511051  RH  048%=      5-min Rain = 0
KME1 120935Z 35006KT 05/M05 A3033 RMK A01 T00501052  RH  048%=      5-min Rain = 0
KME1 120936Z 35006KT 05/M05 A3033 RMK A01 T00501051  RH  048%=      5-min Rain = 0
KME1 120937Z 35006KT 05/M05 A3033 RMK A01 T00511051  RH  048%=      5-min Rain = 0
KME1 120938Z 35006KT 05/M05 A3033 RMK A01 T00501051  RH  048%=      5-min Rain = 0
KME1 120939Z 35006KT 05/M05 A3033 RMK A01 T00501051  RH  048%=      5-min Rain = 0
KME1 120940Z 35006KT 05/M05 A3033 RMK A01 T00501051  RH  048%=      5-min Rain = 0
KME1 120941Z 35006KT 05/M05 A3033 RMK A01 T00501051  RH  048%=      5-min Rain = 0
KME1 120942Z 36006KT 05/M05 A3033 RMK A01 T00501051  RH  048%=      5-min Rain = 0
KME1 120943Z 35005KT 05/M05 A3033 RMK A01 T00501051  RH  048%=      5-min Rain = 0
KME1 120944Z 35006KT 05/M05 A3033 RMK A01 T00491051  RH  048%=      5-min Rain = 0
KME1 120945Z 35005KT 05/M05 A3033 RMK A01 T00491051  RH  048%=      5-min Rain = 0
KME1 120946Z 35005KT 05/M05 A3033 RMK A01 T00481051  RH  048%=      5-min Rain = 0
KME1 120947Z 35005KT 05/M05 A3033 RMK A01 T00481051  RH  049%=      5-min Rain = 0
KME1 120948Z 34005KT 05/M05 A3033 RMK A01 T00481051  RH  049%=      5-min Rain = 0
KME1 120949Z 34006KT 05/M05 A3033 RMK A01 T00471051  RH  049%=      5-min Rain = 0
KME1 120950Z 34006KT 05/M05 A3034 RMK A01 T00471051  RH  049%=      5-min Rain = 0
KME1 120951Z 34005KT 05/M05 A3034 RMK A01 T00461051  RH  049%=      5-min Rain = 0
KME1 120952Z 34005KT 05/M05 A3034 RMK A01 T00461051  RH  049%=      5-min Rain = 0
KME1 120953Z 34005KT 05/M05 A3034 RMK A01 T00451051  RH  050%=      5-min Rain = 0
KME1 120954Z 35006KT 04/M05 A3034 RMK A01 T00441051  RH  050%=      5-min Rain = 0
KME1 120955Z 35006KT 04/M05 A3034 RMK A01 T00441051  RH  050%=      5-min Rain = 0
KME1 120956Z 34006KT 04/M05 A3034 RMK A01 T00431051  RH  050%=      5-min Rain = 0
KME1 120957Z 34006KT 04/M05 A3034 RMK A01 T00431051  RH  050%=      5-min Rain = 0
KME1 120958Z 34007KT 04/M05 A3034 RMK A01 T00431051  RH  051%=      5-min Rain = 0
KME1 120959Z 35007KT 04/M05 A3034 RMK A01 T00431051  RH  051%=      5-min Rain = 0
KME1 121000Z 35006KT 04/M05 A3034 RMK A01 T00431051  RH  051%=      5-min Rain = 0
KME1 121001Z 35006KT 04/M05 A3034 RMK A01 T00431050  RH  051%=      5-min Rain = 0
KME1 121002Z 35006KT 04/M05 A3034 RMK A01 T00431050  RH  051%=      5-min Rain = 0
KME1 121003Z 35006KT 04/M05 A3034 RMK A01 T00431050  RH  051%=      5-min Rain = 0
KME1 121004Z 35007KT 04/M05 A3034 RMK A01 T00431050  RH  051%=      5-min Rain = 0
KME1 121005Z 35006KT 04/M05 A3034 RMK A01 T00441050  RH  051%=      5-min Rain = 0
KME1 121006Z 35006KT 04/M05 A3034 RMK A01 T00441050  RH  051%=      5-min Rain = 0
KME1 121007Z 35006KT 04/M05 A3034 RMK A01 T00441049  RH  051%=      5-min Rain = 0
KME1 121008Z 35006KT 04/M05 A3034 RMK A01 T00441049  RH  051%=      5-min Rain = 0
KME1 121009Z 35006KT 04/M05 A3034 RMK A01 T00441049  RH  051%=      5-min Rain = 0
KME1 121010Z 35006KT 04/M05 A3034 RMK A01 T00441049  RH  051%=      5-min Rain = 0
KME1 121011Z 35006KT 04/M05 A3034 RMK A01 T00441049  RH  051%=      5-min Rain = 0
KME1 121012Z 36006KT 04/M05 A3034 RMK A01 T00441049  RH  051%=      5-min Rain = 0
KME1 121013Z 36005KT 04/M05 A3034 RMK A01 T00441048  RH  051%=      5-min Rain = 0
KME1 121014Z 00005KT 04/M05 A3034 RMK A01 T00441048  RH  051%=      5-min Rain = 0
KME1 121015Z 01005KT 04/M05 A3034 RMK A01 T00441048  RH  051%=      5-min Rain = 0
KME1 121016Z 01004KT 04/M05 A3034 RMK A01 T00441048  RH  051%=      5-min Rain = 0
KME1 121017Z 01004KT 04/M05 A3034 RMK A01 T00431048  RH  052%=      5-min Rain = 0
KME1 121018Z 02005KT 04/M05 A3034 RMK A01 T00431047  RH  052%=      5-min Rain = 0
KME1 121019Z 02005KT 04/M05 A3034 RMK A01 T00421047  RH  052%=      5-min Rain = 0
KME1 121020Z 02004KT 04/M05 A3034 RMK A01 T00421047  RH  052%=      5-min Rain = 0
KME1 121021Z 01004KT 04/M05 A3034 RMK A01 T00421046  RH  053%=      5-min Rain = 0
KME1 121022Z 02002KT 04/M05 A3034 RMK A01 T00421046  RH  053%=      5-min Rain = 0
KME1 121023Z 12001KT 04/M05 A3034 RMK A01 T00401048  RH  052%=      5-min Rain = 0
KME1 121024Z 12001KT 04/M05 A3034 RMK A01 T00381050  RH  053%=      5-min Rain = 0
KME1 121025Z 13000KT 04/M05 A3034 RMK A01 T00371050  RH  053%=      5-min Rain = 0
KME1 121026Z 00000KT 04/M05 A3034 RMK A01 T00371049  RH  053%=      5-min Rain = 0
KME1 121027Z 15000KT 04/M05 A3034 RMK A01 T00371049  RH  053%=      5-min Rain = 0
KME1 121028Z 17002KT 04/M05 A3035 RMK A01 T00371049  RH  053%=      5-min Rain = 0
KME1 121029Z 19001KT 04/M05 A3034 RMK A01 T00381048  RH  054%=      5-min Rain = 0
KME1 121030Z 21001KT 04/M05 A3034 RMK A01 T00371048  RH  054%=      5-min Rain = 0
KME1 121031Z 21001KT 04/M05 A3035 RMK A01 T00381048  RH  053%=      5-min Rain = 0
KME1 121032Z 21001KT 04/M05 A3035 RMK A01 T00381048  RH  054%=      5-min Rain = 0
KME1 121033Z 21000KT 04/M05 A3035 RMK A01 T00381047  RH  054%=      5-min Rain = 0
KME1 121034Z 00000KT 04/M05 A3035 RMK A01 T00381047  RH  054%=      5-min Rain = 0
KME1 121035Z 00000KT 04/M05 A3035 RMK A01 T00381046  RH  054%=      5-min Rain = 0
KME1 121036Z 00000KT 04/M05 A3035 RMK A01 T00381046  RH  054%=      5-min Rain = 0
KME1 121037Z 00000KT 04/M05 A3035 RMK A01 T00391046  RH  054%=      5-min Rain = 0
KME1 121038Z 01000KT 04/M05 A3035 RMK A01 T00391046  RH  054%=      5-min Rain = 0
KME1 121039Z 00001KT 04/M05 A3035 RMK A01 T00391046  RH  054%=      5-min Rain = 0
KME1 121040Z 02001KT 04/M05 A3035 RMK A01 T00401046  RH  054%=      5-min Rain = 0
KME1 121041Z 02001KT 04/M05 A3035 RMK A01 T00401045  RH  054%=      5-min Rain = 0
KME1 121042Z 01001KT 04/M05 A3035 RMK A01 T00391045  RH  054%=      5-min Rain = 0
KME1 121043Z 35001KT 04/M05 A3035 RMK A01 T00391045  RH  054%=      5-min Rain = 0
KME1 121044Z 35001KT 04/M05 A3035 RMK A01 T00391045  RH  054%=      5-min Rain = 0
KME1 121045Z 35001KT 04/M04 A3035 RMK A01 T00401044  RH  054%=      5-min Rain = 0
KME1 121046Z 34001KT 04/M04 A3035 RMK A01 T00401044  RH  054%=      5-min Rain = 0
KME1 121047Z 33001KT 04/M04 A3035 RMK A01 T00421043  RH  054%=      5-min Rain = 0
KME1 121048Z 34002KT 04/M04 A3035 RMK A01 T00421042  RH  054%=      5-min Rain = 0
KME1 121049Z 34001KT 04/M04 A3035 RMK A01 T00431041  RH  054%=      5-min Rain = 0
KME1 121050Z 34001KT 04/M04 A3035 RMK A01 T00431041  RH  054%=      5-min Rain = 0
KME1 121051Z 34002KT 04/M04 A3035 RMK A01 T00431043  RH  053%=      5-min Rain = 0
KME1 121052Z 33002KT 04/M04 A3035 RMK A01 T00441041  RH  054%=      5-min Rain = 0
KME1 121053Z 34002KT 04/M04 A3035 RMK A01 T00441040  RH  054%=      5-min Rain = 0
KME1 121054Z 34002KT 04/M04 A3035 RMK A01 T00441041  RH  054%=      5-min Rain = 0
KME1 121055Z 36001KT 04/M04 A3035 RMK A01 T00441041  RH  054%=      5-min Rain = 0
KME1 121056Z 35001KT 04/M04 A3035 RMK A01 T00441040  RH  054%=      5-min Rain = 0
KME1 121057Z 34001KT 05/M04 A3035 RMK A01 T00451039  RH  055%=      5-min Rain = 0
KME1 121058Z 34001KT 05/M04 A3035 RMK A01 T00451039  RH  054%=      5-min Rain = 0
KME1 121059Z 34001KT 05/M04 A3035 RMK A01 T00451040  RH  054%=      5-min Rain = 0
KME1 121100Z 32001KT 05/M04 A3035 RMK A01 T00451041  RH  054%=      5-min Rain = 0
KME1 121101Z 31001KT 05/M04 A3035 RMK A01 T00451041  RH  054%=      5-min Rain = 0
KME1 121102Z 32001KT 05/M04 A3036 RMK A01 T00461041  RH  053%=      5-min Rain = 0
KME1 121103Z 33001KT 05/M04 A3036 RMK A01 T00461041  RH  053%=      5-min Rain = 0
KME1 121104Z 34001KT 05/M04 A3036 RMK A01 T00461041  RH  053%=      5-min Rain = 0
KME1 121105Z 35001KT 05/M04 A3036 RMK A01 T00471039  RH  054%=      5-min Rain = 0
KME1 121106Z 36002KT 05/M04 A3036 RMK A01 T00471040  RH  053%=      5-min Rain = 0
KME1 121107Z 00001KT 05/M04 A3036 RMK A01 T00471040  RH  053%=      5-min Rain = 0
KME1 121108Z 00001KT 05/M04 A3036 RMK A01 T00471041  RH  053%=      5-min Rain = 0
KME1 121109Z 00001KT 05/M04 A3036 RMK A01 T00481040  RH  053%=      5-min Rain = 0
KME1 121110Z 35001KT 05/M04 A3036 RMK A01 T00481040  RH  053%=      5-min Rain = 0
KME1 121111Z 34001KT 05/M04 A3036 RMK A01 T00481039  RH  053%=      5-min Rain = 0
KME1 121112Z 34000KT 05/M04 A3036 RMK A01 T00481039  RH  054%=      5-min Rain = 0
KME1 121113Z 33000KT 05/M04 A3036 RMK A01 T00481038  RH  053%=      5-min Rain = 0
KME1 121114Z 33000KT 05/M04 A3036 RMK A01 T00481039  RH  053%=      5-min Rain = 0
KME1 121115Z 35000KT 05/M04 A3036 RMK A01 T00481038  RH  053%=      5-min Rain = 0
KME1 121116Z 00001KT 05/M04 A3036 RMK A01 T00491039  RH  053%=      5-min Rain = 0
KME1 121117Z 00001KT 05/M04 A3036 RMK A01 T00491038  RH  053%=      5-min Rain = 0
KME1 121118Z 01001KT 05/M04 A3036 RMK A01 T00491038  RH  053%=      5-min Rain = 0
KME1 121119Z 01002KT 05/M04 A3036 RMK A01 T00501037  RH  053%=      5-min Rain = 0
KME1 121120Z 01002KT 05/M04 A3036 RMK A01 T00501036  RH  054%=      5-min Rain = 0
KME1 121121Z 01002KT 05/M04 A3036 RMK A01 T00501035  RH  054%=      5-min Rain = 0
KME1 121122Z 02002KT 05/M04 A3036 RMK A01 T00501035  RH  054%=      5-min Rain = 0
KME1 121123Z 02002KT 05/M04 A3036 RMK A01 T00501036  RH  054%=      5-min Rain = 0
KME1 121124Z 02002KT 05/M04 A3036 RMK A01 T00501036  RH  054%=      5-min Rain = 0
KME1 121125Z 02002KT 05/M04 A3036 RMK A01 T00501036  RH  054%=      5-min Rain = 0
KME1 121126Z 03002KT 05/M04 A3036 RMK A01 T00501037  RH  053%=      5-min Rain = 0
KME1 121127Z 03002KT 05/M04 A3036 RMK A01 T00501036  RH  053%=      5-min Rain = 0
KME1 121128Z 02002KT 05/M04 A3036 RMK A01 T00501036  RH  054%=      5-min Rain = 0
KME1 121129Z 01002KT 05/M04 A3036 RMK A01 T00501036  RH  054%=      5-min Rain = 0
KME1 121130Z 00002KT 05/M04 A3036 RMK A01 T00501035  RH  054%=      5-min Rain = 0
KME1 121131Z 35002KT 05/M04 A3036 RMK A01 T00501035  RH  054%=      5-min Rain = 0
KME1 121132Z 36002KT 05/M04 A3036 RMK A01 T00501035  RH  054%=      5-min Rain = 0
KME1 121133Z 36001KT 05/M04 A3036 RMK A01 T00501035  RH  054%=      5-min Rain = 0
KME1 121134Z 01002KT 05/M03 A3036 RMK A01 T00501034  RH  054%=      5-min Rain = 0
KME1 121135Z 02002KT 05/M03 A3036 RMK A01 T00501033  RH  055%=      5-min Rain = 0
KME1 121136Z 03003KT 05/M03 A3036 RMK A01 T00501034  RH  054%=      5-min Rain = 0
KME1 121137Z 03003KT 05/M03 A3036 RMK A01 T00501034  RH  054%=      5-min Rain = 0
KME1 121138Z 03003KT 05/M03 A3036 RMK A01 T00511034  RH  054%=      5-min Rain = 0
KME1 121139Z 03003KT 05/M04 A3036 RMK A01 T00501035  RH  054%=      5-min Rain = 0
KME1 121140Z 03003KT 05/M04 A3036 RMK A01 T00511035  RH  054%=      5-min Rain = 0
KME1 121141Z 03003KT 05/M04 A3036 RMK A01 T00511036  RH  054%=      5-min Rain = 0
KME1 121142Z 02003KT 05/M04 A3037 RMK A01 T00501036  RH  054%=      5-min Rain = 0
KME1 121143Z 02002KT 05/M04 A3037 RMK A01 T00501036  RH  054%=      5-min Rain = 0
KME1 121144Z 02002KT 05/M04 A3037 RMK A01 T00501035  RH  054%=      5-min Rain = 0
KME1 121145Z 01002KT 05/M04 A3037 RMK A01 T00511035  RH  054%=      5-min Rain = 0
KME1 121146Z 01002KT 05/M04 A3037 RMK A01 T00511035  RH  054%=      5-min Rain = 0
KME1 121147Z 00002KT 05/M04 A3037 RMK A01 T00511035  RH  054%=      5-min Rain = 0
KME1 121148Z 00002KT 05/M03 A3037 RMK A01 T00521034  RH  054%=      5-min Rain = 0
KME1 121149Z 36002KT 05/M03 A3037 RMK A01 T00521034  RH  054%=      5-min Rain = 0
KME1 121150Z 00002KT 05/M03 A3037 RMK A01 T00521034  RH  054%=      5-min Rain = 0
KME1 121151Z 00003KT 05/M03 A3037 RMK A01 T00521034  RH  054%=      5-min Rain = 0
KME1 121152Z 00003KT 05/M03 A3037 RMK A01 T00521034  RH  054%=      5-min Rain = 0
KME1 121153Z 01003KT 05/M03 A3037 RMK A01 T00531033  RH  054%=      5-min Rain = 0
KME1 121154Z 01003KT 05/M03 A3037 RMK A01 T00531033  RH  054%=      5-min Rain = 0
KME1 121155Z 02003KT 05/M03 A3037 RMK A01 T00531033  RH  054%=      5-min Rain = 0
KME1 121156Z 02003KT 05/M03 A3037 RMK A01 T00531033  RH  054%=      5-min Rain = 0
KME1 121157Z 02002KT 05/M03 A3037 RMK A01 T00531032  RH  054%=      5-min Rain = 0
KME1 121158Z 02003KT 05/M03 A3037 RMK A01 T00531032  RH  054%=      5-min Rain = 0
KME1 121159Z 02003KT 05/M03 A3037 RMK A01 T00531031  RH  055%=      5-min Rain = 0
KME1 121200Z 03003KT 05/M03 A3037 RMK A01 T00521031  RH  055%=      5-min Rain = 0
KME1 121201Z 04003KT 05/M03 A3037 RMK A01 T00521031  RH  055%=      5-min Rain = 0
KME1 121202Z 05003KT 05/M03 A3037 RMK A01 T00521031  RH  055%=      5-min Rain = 0
KME1 121203Z 05002KT 05/M03 A3037 RMK A01 T00511032  RH  055%=      5-min Rain = 0
KME1 121204Z 06002KT 05/M03 A3037 RMK A01 T00501033  RH  055%=      5-min Rain = 0
KME1 121205Z 06003KT 05/M03 A3037 RMK A01 T00491033  RH  055%=      5-min Rain = 0
KME1 121206Z 06003KT 05/M03 A3037 RMK A01 T00491034  RH  055%=      5-min Rain = 0
KME1 121207Z 05003KT 05/M03 A3036 RMK A01 T00491034  RH  055%=      5-min Rain = 0
KME1 121208Z 05004KT 05/M03 A3036 RMK A01 T00491034  RH  055%=      5-min Rain = 0
KME1 121209Z 04003KT 05/M03 A3036 RMK A01 T00491034  RH  055%=      5-min Rain = 0
KME1 121210Z 04004KT 05/M03 A3036 RMK A01 T00501033  RH  055%=      5-min Rain = 0
KME1 121211Z 05003KT 05/M03 A3036 RMK A01 T00501033  RH  055%=      5-min Rain = 0
KME1 121212Z 05004KT 05/M03 A3036 RMK A01 T00511033  RH  055%=      5-min Rain = 0
KME1 121213Z 05004KT 05/M03 A3036 RMK A01 T00511033  RH  055%=      5-min Rain = 0
KME1 121214Z 05004KT 05/M03 A3036 RMK A01 T00511033  RH  055%=      5-min Rain = 0
KME1 121215Z 05003KT 05/M03 A3036 RMK A01 T00521033  RH  054%=      5-min Rain = 0
KME1 121216Z 05003KT 05/M03 A3037 RMK A01 T00521033  RH  054%=      5-min Rain = 0
KME1 121217Z 05003KT 05/M03 A3037 RMK A01 T00521033  RH  054%=      5-min Rain = 0
KME1 121218Z 04003KT 05/M03 A3037 RMK A01 T00521033  RH  054%=      5-min Rain = 0
KME1 121219Z 04003KT 05/M03 A3037 RMK A01 T00521033  RH  054%=      5-min Rain = 0
KME1 121220Z 05004KT 05/M03 A3037 RMK A01 T00521034  RH  054%=      5-min Rain = 0
KME1 121221Z 04003KT 05/M03 A3037 RMK A01 T00521034  RH  054%=      5-min Rain = 0
KME1 121222Z 04004KT 05/M03 A3037 RMK A01 T00521033  RH  054%=      5-min Rain = 0
KME1 121223Z 04004KT 05/M03 A3037 RMK A01 T00531033  RH  054%=      5-min Rain = 0
KME1 121224Z 04004KT 05/M03 A3037 RMK A01 T00531033  RH  054%=      5-min Rain = 0
KME1 121225Z 04005KT 05/M03 A3037 RMK A01 T00531033  RH  054%=      5-min Rain = 0
KME1 121226Z 04005KT 05/M03 A3037 RMK A01 T00541033  RH  054%=      5-min Rain = 0
KME1 121227Z 04005KT 05/M03 A3037 RMK A01 T00541032  RH  054%=      5-min Rain = 0
KME1 121228Z 04005KT 05/M03 A3037 RMK A01 T00541032  RH  054%=      5-min Rain = 0
KME1 121229Z 04006KT 06/M03 A3037 RMK A01 T00551032  RH  054%=      5-min Rain = 0
KME1 121230Z 04006KT 06/M03 A3037 RMK A01 T00551032  RH  053%=      5-min Rain = 0
KME1 121231Z 03006KT 06/M03 A3037 RMK A01 T00561032  RH  053%=      5-min Rain = 0
KME1 121232Z 04006KT 06/M03 A3037 RMK A01 T00561032  RH  053%=      5-min Rain = 0
KME1 121233Z 04006KT 06/M03 A3037 RMK A01 T00571032  RH  053%=      5-min Rain = 0
KME1 121234Z 05005KT 06/M03 A3037 RMK A01 T00571032  RH  053%=      5-min Rain = 0
KME1 121235Z 04005KT 06/M03 A3037 RMK A01 T00571032  RH  053%=      5-min Rain = 0
KME1 121236Z 04006KT 06/M03 A3037 RMK A01 T00581032  RH  052%=      5-min Rain = 0
KME1 121237Z 04004KT 06/M03 A3037 RMK A01 T00581031  RH  052%=      5-min Rain = 0
KME1 121238Z 04006KT 06/M03 A3037 RMK A01 T00581032  RH  052%=      5-min Rain = 0
KME1 121239Z 04006KT 06/M03 A3037 RMK A01 T00591032  RH  052%=      5-min Rain = 0
KME1 121240Z 04005KT 06/M03 A3037 RMK A01 T00591032  RH  052%=      5-min Rain = 0
KME1 121241Z 04005KT 06/M03 A3037 RMK A01 T00591032  RH  052%=      5-min Rain = 0
KME1 121242Z 04004KT 06/M03 A3037 RMK A01 T00591031  RH  052%=      5-min Rain = 0
KME1 121243Z 04005KT 06/M03 A3037 RMK A01 T00591031  RH  052%=      5-min Rain = 0
KME1 121244Z 04004KT 06/M03 A3037 RMK A01 T00591031  RH  052%=      5-min Rain = 0
KME1 121245Z 04004KT 06/M03 A3037 RMK A01 T00591031  RH  052%=      5-min Rain = 0
KME1 121246Z 03005KT 06/M03 A3037 RMK A01 T00591031  RH  052%=      5-min Rain = 0
KME1 121247Z 04005KT 06/M03 A3037 RMK A01 T00591031  RH  052%=      5-min Rain = 0
KME1 121248Z 03005KT 06/M03 A3037 RMK A01 T00591030  RH  052%=      5-min Rain = 0
KME1 121249Z 04006KT 06/M03 A3037 RMK A01 T00591031  RH  052%=      5-min Rain = 0
KME1 121250Z 04005KT 06/M03 A3037 RMK A01 T00591031  RH  052%=      5-min Rain = 0
KME1 121251Z 04005KT 06/M03 A3037 RMK A01 T00591031  RH  052%=      5-min Rain = 0
KME1 121252Z 04005KT 06/M03 A3037 RMK A01 T00591031  RH  052%=      5-min Rain = 0
KME1 121253Z 04004KT 06/M03 A3037 RMK A01 T00601030  RH  052%=      5-min Rain = 0
KME1 121254Z 04004KT 06/M03 A3037 RMK A01 T00601030  RH  052%=      5-min Rain = 0
KME1 121255Z 05004KT 06/M03 A3037 RMK A01 T00601030  RH  052%=      5-min Rain = 0
KME1 121256Z 04004KT 06/M03 A3038 RMK A01 T00601030  RH  052%=      5-min Rain = 0
KME1 121257Z 04005KT 06/M03 A3038 RMK A01 T00601030  RH  052%=      5-min Rain = 0
KME1 121258Z 04003KT 06/M03 A3038 RMK A01 T00601030  RH  052%=      5-min Rain = 0
KME1 121259Z 05004KT 06/M03 A3038 RMK A01 T00611030  RH  052%=      5-min Rain = 0
KME1 121300Z 06004KT 06/M03 A3038 RMK A01 T00611030  RH  052%=      5-min Rain = 0
KME1 121301Z 05004KT 06/M03 A3038 RMK A01 T00611030  RH  052%=      5-min Rain = 0
KME1 121302Z 05004KT 06/M03 A3038 RMK A01 T00611030  RH  052%=      5-min Rain = 0
KME1 121303Z 06004KT 06/M03 A3038 RMK A01 T00621030  RH  052%=      5-min Rain = 0
KME1 121304Z 04006KT 06/M03 A3038 RMK A01 T00621030  RH  052%=      5-min Rain = 0
KME1 121305Z 05008KT 06/M03 A3038 RMK A01 T00621030  RH  052%=      5-min Rain = 0
KME1 121306Z 05007KT 06/M03 A3038 RMK A01 T00621030  RH  052%=      5-min Rain = 0
KME1 121307Z 06006KT 06/M03 A3038 RMK A01 T00631030  RH  052%=      5-min Rain = 0
KME1 121308Z 05006KT 06/M03 A3038 RMK A01 T00631030  RH  052%=      5-min Rain = 0
KME1 121309Z 04007KT 06/M03 A3038 RMK A01 T00631029  RH  052%=      5-min Rain = 0
KME1 121310Z 05007KT 06/M03 A3038 RMK A01 T00631030  RH  052%=      5-min Rain = 0
KME1 121311Z 04006KT 06/M03 A3038 RMK A01 T00631029  RH  052%=      5-min Rain = 0
KME1 121312Z 04006KT 06/M03 A3038 RMK A01 T00631029  RH  052%=      5-min Rain = 0
KME1 121313Z 03007KT 06/M03 A3038 RMK A01 T00631029  RH  052%=      5-min Rain = 0
KME1 121314Z 04008KT 06/M03 A3038 RMK A01 T00631029  RH  052%=      5-min Rain = 0
KME1 121315Z 04007KT 06/M03 A3038 RMK A01 T00631029  RH  052%=      5-min Rain = 0
KME1 121316Z 04008KT 06/M03 A3038 RMK A01 T00631029  RH  052%=      5-min Rain = 0
KME1 121317Z 05007KT 06/M03 A3038 RMK A01 T00621029  RH  052%=      5-min Rain = 0
KME1 121318Z 05007KT 06/M03 A3038 RMK A01 T00621029  RH  052%=      5-min Rain = 0
KME1 121319Z 04006KT 06/M03 A3038 RMK A01 T00631029  RH  052%=      5-min Rain = 0
KME1 121320Z 04004KT 06/M03 A3038 RMK A01 T00621029  RH  052%=      5-min Rain = 0
KME1 121321Z 04006KT 06/M03 A3038 RMK A01 T00621029  RH  052%=      5-min Rain = 0
KME1 121322Z 04007KT 06/M03 A3039 RMK A01 T00631029  RH  052%=      5-min Rain = 0
KME1 121323Z 04008KT 06/M03 A3039 RMK A01 T00621029  RH  052%=      5-min Rain = 0
KME1 121324Z 05009KT 06/M03 A3039 RMK A01 T00631029  RH  052%=      5-min Rain = 0
KME1 121325Z 04007KT 06/M03 A3039 RMK A01 T00631029  RH  052%=      5-min Rain = 0
KME1 121326Z 04007KT 06/M03 A3039 RMK A01 T00631029  RH  052%=      5-min Rain = 0
KME1 121327Z 04008KT 06/M03 A3039 RMK A01 T00621029  RH  052%=      5-min Rain = 0
KME1 121328Z 04007KT 06/M03 A3039 RMK A01 T00621029  RH  052%=      5-min Rain = 0
KME1 121329Z 05009KT 06/M03 A3039 RMK A01 T00621029  RH  052%=      5-min Rain = 0
KME1 121330Z 05008KT 06/M03 A3038 RMK A01 T00631029  RH  052%=      5-min Rain = 0
KME1 121331Z 05007KT 06/M03 A3038 RMK A01 T00631029  RH  052%=      5-min Rain = 0
KME1 121332Z 05010KT 06/M03 A3038 RMK A01 T00621029  RH  052%=      5-min Rain = 0
KME1 121333Z 05011KT 06/M03 A3038 RMK A01 T00621029  RH  052%=      5-min Rain = 0
KME1 121334Z 05007KT 06/M03 A3038 RMK A01 T00621030  RH  052%=      5-min Rain = 0
KME1 121335Z 04009KT 06/M03 A3038 RMK A01 T00621030  RH  052%=      5-min Rain = 0
KME1 121336Z 05007KT 06/M03 A3038 RMK A01 T00631029  RH  052%=      5-min Rain = 0
KME1 121337Z 05009KT 06/M03 A3038 RMK A01 T00631029  RH  052%=      5-min Rain = 0
KME1 121338Z 04008KT 06/M03 A3038 RMK A01 T00621030  RH  052%=      5-min Rain = 0
KME1 121339Z 05008KT 06/M03 A3038 RMK A01 T00631029  RH  052%=      5-min Rain = 0
KME1 121340Z 05008KT 06/M03 A3038 RMK A01 T00621029  RH  052%=      5-min Rain = 0
KME1 121341Z 05005KT 06/M03 A3038 RMK A01 T00631029  RH  052%=      5-min Rain = 0
KME1 121342Z 05007KT 06/M03 A3039 RMK A01 T00621029  RH  052%=      5-min Rain = 0
KME1 121343Z 05008KT 06/M03 A3039 RMK A01 T00621029  RH  052%=      5-min Rain = 0
KME1 121344Z 04007KT 06/M03 A3039 RMK A01 T00631029  RH  052%=      5-min Rain = 0
KME1 121345Z 05007KT 06/M03 A3039 RMK A01 T00631028  RH  052%=      5-min Rain = 0
KME1 121346Z 05005KT 06/M03 A3039 RMK A01 T00631028  RH  052%=      5-min Rain = 0
KME1 121347Z 05008KT 06/M03 A3039 RMK A01 T00631028  RH  052%=      5-min Rain = 0
KME1 121348Z 05007KT 06/M03 A3039 RMK A01 T00631029  RH  052%=      5-min Rain = 0
KME1 121349Z 04007KT 06/M03 A3039 RMK A01 T00631029  RH  052%=      5-min Rain = 0
KME1 121350Z 05007KT 06/M03 A3039 RMK A01 T00631028  RH  052%=      5-min Rain = 0
KME1 121351Z 06009KT 06/M03 A3039 RMK A01 T00631028  RH  052%=      5-min Rain = 0
KME1 121352Z 06008KT 06/M03 A3039 RMK A01 T00631029  RH  052%=      5-min Rain = 0
KME1 121353Z 06006KT 06/M03 A3039 RMK A01 T00631029  RH  052%=      5-min Rain = 0
KME1 121354Z 05008KT 06/M03 A3039 RMK A01 T00631028  RH  052%=      5-min Rain = 0
KME1 121355Z 05008KT 06/M03 A3039 RMK A01 T00631029  RH  052%=      5-min Rain = 0
KME1 121356Z 05007KT 06/M03 A3039 RMK A01 T00631029  RH  052%=      5-min Rain = 0
KME1 121357Z 05008KT 06/M03 A3039 RMK A01 T00631029  RH  052%=      5-min Rain = 0
KME1 121358Z 04008KT 06/M03 A304 RMK A01 T00631029  RH  052%=      5-min Rain = 0
KME1 121359Z 04006KT 06/M03 A304 RMK A01 T00631029  RH  052%=      5-min Rain = 0
KME1 121400Z 04008KT 06/M03 A304 RMK A01 T00631028  RH  052%=      5-min Rain = 0
KME1 121401Z 05008KT 06/M03 A304 RMK A01 T00631028  RH  052%=      5-min Rain = 0
KME1 121402Z 05009KT 06/M03 A304 RMK A01 T00631028  RH  052%=      5-min Rain = 0
KME1 121403Z 04007KT 06/M03 A304 RMK A01 T00631028  RH  052%=      5-min Rain = 0
KME1 121404Z 05008KT 06/M03 A304 RMK A01 T00641028  RH  052%=      5-min Rain = 0
KME1 121405Z 05009KT 06/M03 A304 RMK A01 T00631028  RH  052%=      5-min Rain = 0
KME1 121406Z 05005KT 06/M03 A304 RMK A01 T00631028  RH  052%=      5-min Rain = 0
KME1 121407Z 05007KT 06/M03 A304 RMK A01 T00641028  RH  052%=      5-min Rain = 0
KME1 121408Z 04005KT 06/M03 A304 RMK A01 T00641028  RH  052%=      5-min Rain = 0
KME1 121409Z 04005KT 06/M03 A304 RMK A01 T00641027  RH  052%=      5-min Rain = 0
KME1 121410Z 05005KT 06/M03 A304 RMK A01 T00641027  RH  052%=      5-min Rain = 0
KME1 121411Z 04007KT 07/M03 A304 RMK A01 T00651027  RH  052%=      5-min Rain = 0
KME1 121412Z 04006KT 07/M03 A304 RMK A01 T00651027  RH  052%=      5-min Rain = 0
KME1 121413Z 05005KT 07/M03 A304 RMK A01 T00651027  RH  052%=      5-min Rain = 0
KME1 121414Z 05006KT 07/M03 A304 RMK A01 T00651027  RH  052%=      5-min Rain = 0
KME1 121415Z 05006KT 07/M03 A304 RMK A01 T00651027  RH  052%=      5-min Rain = 0
KME1 121416Z 04007KT 07/M03 A304 RMK A01 T00651027  RH  052%=      5-min Rain = 0
KME1 121417Z 05006KT 07/M03 A304 RMK A01 T00651027  RH  052%=      5-min Rain = 0
KME1 121418Z 06010KT 07/M03 A304 RMK A01 T00651027  RH  052%=      5-min Rain = 0
KME1 121419Z 05008KT 07/M03 A304 RMK A01 T00651028  RH  052%=      5-min Rain = 0
KME1 121420Z 05008KT 07/M03 A304 RMK A01 T00651027  RH  052%=      5-min Rain = 0
KME1 121421Z 04007KT 07/M03 A304 RMK A01 T00651027  RH  052%=      5-min Rain = 0
KME1 121422Z 05007KT 07/M03 A304 RMK A01 T00651027  RH  052%=      5-min Rain = 0
KME1 121423Z 06008KT 07/M03 A304 RMK A01 T00651027  RH  052%=      5-min Rain = 0
KME1 121424Z 05006KT 07/M03 A304 RMK A01 T00651027  RH  052%=      5-min Rain = 0
KME1 121425Z 04009KT 07/M03 A304 RMK A01 T00651027  RH  052%=      5-min Rain = 0
KME1 121426Z 05009KT 07/M03 A304 RMK A01 T00651027  RH  052%=      5-min Rain = 0
KME1 121427Z 04009KT 07/M03 A304 RMK A01 T00651028  RH  052%=      5-min Rain = 0
KME1 121428Z 05008KT 07/M03 A304 RMK A01 T00651027  RH  052%=      5-min Rain = 0
KME1 121429Z 04008KT 07/M03 A304 RMK A01 T00651027  RH  052%=      5-min Rain = 0
KME1 121430Z 04007KT 07/M03 A304 RMK A01 T00651027  RH  052%=      5-min Rain = 0
KME1 121431Z 04007KT 07/M03 A304 RMK A01 T00651027  RH  052%=      5-min Rain = 0
KME1 121432Z 04008KT 07/M03 A304 RMK A01 T00651027  RH  052%=      5-min Rain = 0
KME1 121433Z 05009KT 07/M03 A304 RMK A01 T00651027  RH  052%=      5-min Rain = 0
KME1 121434Z 05011KT 07/M03 A3041 RMK A01 T00651027  RH  052%=      5-min Rain = 0
KME1 121435Z 06009KT 07/M03 A3041 RMK A01 T00651027  RH  052%=      5-min Rain = 0
KME1 121436Z 06008KT 07/M03 A304 RMK A01 T00651027  RH  052%=      5-min Rain = 0
KME1 121437Z 06007KT 07/M03 A304 RMK A01 T00651027  RH  052%=      5-min Rain = 0
KME1 121438Z 06010KT 07/M03 A304 RMK A01 T00651027  RH  052%=      5-min Rain = 0
KME1 121439Z 06008KT 07/M03 A3041 RMK A01 T00651027  RH  052%=      5-min Rain = 0
KME1 121440Z 05005KT 07/M03 A3041 RMK A01 T00651027  RH  052%=      5-min Rain = 0
KME1 121441Z 05008KT 07/M03 A3041 RMK A01 T00651026  RH  052%=      5-min Rain = 0
KME1 121442Z 06009KT 07/M03 A3041 RMK A01 T00661027  RH  052%=      5-min Rain = 0
KME1 121443Z 05009KT 07/M03 A3041 RMK A01 T00661027  RH  052%=      5-min Rain = 0
KME1 121444Z 05010KT 07/M03 A3041 RMK A01 T00661027  RH  052%=      5-min Rain = 0
KME1 121445Z 05008KT 07/M03 A3041 RMK A01 T00661027  RH  052%=      5-min Rain = 0
KME1 121446Z 05008KT 07/M03 A3041 RMK A01 T00661026  RH  052%=      5-min Rain = 0
KME1 121447Z 05007KT 07/M03 A304 RMK A01 T00661026  RH  052%=      5-min Rain = 0
KME1 121448Z 05006KT 07/M03 A304 RMK A01 T00661026  RH  052%=      5-min Rain = 0
KME1 121449Z 05008KT 07/M03 A304 RMK A01 T00671025  RH  052%=      5-min Rain = 0
KME1 121450Z 04008KT 07/M03 A3041 RMK A01 T00671026  RH  052%=      5-min Rain = 0
KME1 121451Z 04009KT 07/M03 A3041 RMK A01 T00671026  RH  052%=      5-min Rain = 0
KME1 121452Z 04010KT 07/M03 A3041 RMK A01 T00671026  RH  052%=      5-min Rain = 0
KME1 121453Z 04009KT 07/M03 A3041 RMK A01 T00661026  RH  052%=      5-min Rain = 0
KME1 121454Z 04007KT 07/M03 A3041 RMK A01 T00661026  RH  052%=      5-min Rain = 0
KME1 121455Z 04009KT 07/M03 A3041 RMK A01 T00661026  RH  052%=      5-min Rain = 0
KME1 121456Z 04009KT 07/M03 A3041 RMK A01 T00671026  RH  052%=      5-min Rain = 0
KME1 121457Z 06008KT 07/M03 A3041 RMK A01 T00671026  RH  052%=      5-min Rain = 0
KME1 121458Z 05009KT 07/M03 A3041 RMK A01 T00671026  RH  052%=      5-min Rain = 0
KME1 121459Z 05008KT 07/M03 A3041 RMK A01 T00671026  RH  052%=      5-min Rain = 0
KME1 121500Z 06006KT 07/M03 A3041 RMK A01 T00671026  RH  051%=      5-min Rain = 0
KME1 121501Z 06008KT 07/M03 A3041 RMK A01 T00671026  RH  052%=      5-min Rain = 0
KME1 121502Z 06008KT 07/M03 A3041 RMK A01 T00681026  RH  051%=      5-min Rain = 0
KME1 121503Z 06007KT 07/M03 A3041 RMK A01 T00671026  RH  051%=      5-min Rain = 0
KME1 121504Z 06007KT 07/M03 A3041 RMK A01 T00681025  RH  051%=      5-min Rain = 0
KME1 121505Z 05008KT 07/M03 A3041 RMK A01 T00681026  RH  051%=      5-min Rain = 0
KME1 121506Z 06007KT 07/M03 A3041 RMK A01 T00671026  RH  052%=      5-min Rain = 0
KME1 121507Z 06007KT 07/M03 A3041 RMK A01 T00671025  RH  052%=      5-min Rain = 0
KME1 121508Z 05006KT 07/M03 A3041 RMK A01 T00671026  RH  052%=      5-min Rain = 0
KME1 121509Z 06006KT 07/M03 A3041 RMK A01 T00681025  RH  052%=      5-min Rain = 0
KME1 121510Z 06005KT 07/M03 A3041 RMK A01 T00681025  RH  052%=      5-min Rain = 0
KME1 121511Z 05005KT 07/M03 A3041 RMK A01 T00681025  RH  052%=      5-min Rain = 0
KME1 121512Z 07005KT 07/M02 A3041 RMK A01 T00691024  RH  052%=      5-min Rain = 0
KME1 121513Z 07006KT 07/M02 A3041 RMK A01 T00701023  RH  051%=      5-min Rain = 0
KME1 121514Z 06007KT 07/M02 A3041 RMK A01 T00711024  RH  051%=      5-min Rain = 0
KME1 121515Z 06008KT 07/M03 A3041 RMK A01 T00701025  RH  051%=      5-min Rain = 0
KME1 121516Z 06007KT 07/M03 A3041 RMK A01 T00691025  RH  051%=      5-min Rain = 0
KME1 121517Z 06006KT 07/M03 A3041 RMK A01 T00681025  RH  051%=      5-min Rain = 0
KME1 121518Z 07006KT 07/M02 A3041 RMK A01 T00691024  RH  051%=      5-min Rain = 0
KME1 121519Z 07007KT 07/M02 A3041 RMK A01 T00691024  RH  051%=      5-min Rain = 0
KME1 121520Z 07005KT 07/M02 A3041 RMK A01 T00701024  RH  051%=      5-min Rain = 0
KME1 121521Z 06005KT 07/M02 A3041 RMK A01 T00701024  RH  051%=      5-min Rain = 0
KME1 121522Z 05005KT 07/M02 A3041 RMK A01 T00711023  RH  051%=      5-min Rain = 0
KME1 121523Z 05008KT 07/M02 A3041 RMK A01 T00721023  RH  051%=      5-min Rain = 0
KME1 121524Z 06008KT 07/M02 A3041 RMK A01 T00721024  RH  051%=      5-min Rain = 0
KME1 121525Z 07007KT 07/M02 A3041 RMK A01 T00711024  RH  051%=      5-min Rain = 0
KME1 121526Z 07007KT 07/M02 A3041 RMK A01 T00701024  RH  051%=      5-min Rain = 0
KME1 121527Z 06007KT 07/M02 A3041 RMK A01 T00701024  RH  051%=      5-min Rain = 0
KME1 121528Z 07006KT 07/M02 A3041 RMK A01 T00711024  RH  051%=      5-min Rain = 0
KME1 121529Z 07006KT 07/M02 A3041 RMK A01 T00701024  RH  051%=      5-min Rain = 0
KME1 121530Z 06009KT 07/M02 A3041 RMK A01 T00701024  RH  051%=      5-min Rain = 0
KME1 121531Z 07007KT 07/M02 A3041 RMK A01 T00701024  RH  051%=      5-min Rain = 0
KME1 121532Z 06007KT 07/M02 A3041 RMK A01 T00691024  RH  051%=      5-min Rain = 0
KME1 121533Z 07007KT 07/M02 A3041 RMK A01 T00701024  RH  051%=      5-min Rain = 0
KME1 121534Z 06006KT 07/M02 A3041 RMK A01 T00701024  RH  051%=      5-min Rain = 0
KME1 121535Z 06006KT 07/M02 A3041 RMK A01 T00721023  RH  051%=      5-min Rain = 0
KME1 121536Z 04006KT 07/M02 A3041 RMK A01 T00721022  RH  051%=      5-min Rain = 0
KME1 121537Z 07007KT 07/M02 A3041 RMK A01 T00741021  RH  051%=      5-min Rain = 0
KME1 121538Z 07006KT 08/M02 A3041 RMK A01 T00751022  RH  050%=      5-min Rain = 0
KME1 121539Z 07005KT 07/M02 A3041 RMK A01 T00731024  RH  050%=      5-min Rain = 0
KME1 121540Z 05005KT 07/M02 A3041 RMK A01 T00721023  RH  051%=      5-min Rain = 0
KME1 121541Z 09006KT 07/M02 A3041 RMK A01 T00731023  RH  051%=      5-min Rain = 0
KME1 121542Z 07006KT 07/M02 A3041 RMK A01 T00741022  RH  051%=      5-min Rain = 0
KME1 121543Z 07006KT 08/M02 A3041 RMK A01 T00761022  RH  050%=      5-min Rain = 0
KME1 121544Z 09006KT 08/M02 A3042 RMK A01 T00761021  RH  050%=      5-min Rain = 0
KME1 121545Z 08006KT 08/M02 A3042 RMK A01 T00771022  RH  049%=      5-min Rain = 0
KME1 121546Z 06007KT 08/M02 A3042 RMK A01 T00761024  RH  049%=      5-min Rain = 0
KME1 121547Z 07006KT 07/M03 A3042 RMK A01 T00741025  RH  050%=      5-min Rain = 0
KME1 121548Z 07006KT 07/M03 A3042 RMK A01 T00721025  RH  050%=      5-min Rain = 0
KME1 121549Z 08007KT 07/M02 A3042 RMK A01 T00721024  RH  050%=      5-min Rain = 0
KME1 121550Z 07007KT 07/M02 A3042 RMK A01 T00731023  RH  050%=      5-min Rain = 0
KME1 121551Z 08006KT 07/M02 A3042 RMK A01 T00741024  RH  050%=      5-min Rain = 0
KME1 121552Z 08005KT 07/M02 A3042 RMK A01 T00731024  RH  050%=      5-min Rain = 0
KME1 121553Z 09007KT 07/M02 A3042 RMK A01 T00741023  RH  050%=      5-min Rain = 0
KME1 121554Z 07008KT 08/M02 A3042 RMK A01 T00761022  RH  050%=      5-min Rain = 0
KME1 121555Z 07006KT 08/M02 A3042 RMK A01 T00761023  RH  049%=      5-min Rain = 0
KME1 121556Z 08005KT 08/M02 A3042 RMK A01 T00761023  RH  050%=      5-min Rain = 0
KME1 121557Z 06007KT 08/M02 A3042 RMK A01 T00771022  RH  049%=      5-min Rain = 0
KME1 121558Z 06007KT 08/M02 A3042 RMK A01 T00771023  RH  049%=      5-min Rain = 0
KME1 121559Z 05005KT 08/M02 A3042 RMK A01 T00761024  RH  049%=      5-min Rain = 0
KME1 121600Z 07008KT 08/M02 A3042 RMK A01 T00761024  RH  049%=      5-min Rain = 0
KME1 121601Z 07006KT 08/M02 A3042 RMK A01 T00761024  RH  049%=      5-min Rain = 0
KME1 121602Z 07008KT 08/M02 A3042 RMK A01 T00761024  RH  049%=      5-min Rain = 0
KME1 121603Z 07007KT 08/M02 A3042 RMK A01 T00761024  RH  049%=      5-min Rain = 0
KME1 121604Z 06006KT 08/M02 A3042 RMK A01 T00771022  RH  049%=      5-min Rain = 0
KME1 121605Z 05006KT 08/M02 A3042 RMK A01 T00791023  RH  049%=      5-min Rain = 0
KME1 121606Z 05007KT 08/M02 A3042 RMK A01 T00781024  RH  048%=      5-min Rain = 0
KME1 121607Z 04006KT 08/M02 A3042 RMK A01 T00771024  RH  049%=      5-min Rain = 0
KME1 121608Z 04006KT 08/M02 A3042 RMK A01 T00781023  RH  049%=      5-min Rain = 0
KME1 121609Z 04005KT 08/M02 A3042 RMK A01 T00791023  RH  049%=      5-min Rain = 0
KME1 121610Z 05006KT 08/M02 A3042 RMK A01 T00791023  RH  049%=      5-min Rain = 0
KME1 121611Z 06007KT 08/M02 A3042 RMK A01 T00801022  RH  048%=      5-min Rain = 0
KME1 121612Z 06005KT 08/M02 A3042 RMK A01 T00811022  RH  048%=      5-min Rain = 0
KME1 121613Z 07007KT 08/M02 A3042 RMK A01 T00821022  RH  048%=      5-min Rain = 0
KME1 121614Z 05008KT 08/M02 A3042 RMK A01 T00821023  RH  048%=      5-min Rain = 0
KME1 121615Z 04006KT 08/M02 A3042 RMK A01 T00801023  RH  048%=      5-min Rain = 0
KME1 121616Z 03006KT 08/M02 A3042 RMK A01 T00811022  RH  048%=      5-min Rain = 0
KME1 121617Z 05004KT 08/M02 A3042 RMK A01 T00821021  RH  048%=      5-min Rain = 0
KME1 121618Z 04003KT 08/M02 A3042 RMK A01 T00831022  RH  048%=      5-min Rain = 0
KME1 121619Z 04004KT 08/M02 A3042 RMK A01 T00841022  RH  047%=      5-min Rain = 0
KME1 121620Z 08005KT 08/M02 A3042 RMK A01 T00841022  RH  047%=      5-min Rain = 0
KME1 121621Z 09006KT 08/M02 A3042 RMK A01 T00831023  RH  047%=      5-min Rain = 0
KME1 121622Z 07005KT 08/M02 A3042 RMK A01 T00831022  RH  047%=      5-min Rain = 0
KME1 121623Z 03005KT 09/M02 A3042 RMK A01 T00851022  RH  047%=      5-min Rain = 0
KME1 121624Z 06003KT 09/M02 A3042 RMK A01 T00851022  RH  047%=      5-min Rain = 0
KME1 121625Z 06004KT 09/M02 A3042 RMK A01 T00861021  RH  047%=      5-min Rain = 0
KME1 121626Z 06004KT 09/M02 A3042 RMK A01 T00901019  RH  046%=      5-min Rain = 0
KME1 121627Z 07005KT 09/M02 A3042 RMK A01 T00911019  RH  046%=      5-min Rain = 0
KME1 121628Z 08007KT 09/M02 A3042 RMK A01 T00921021  RH  045%=      5-min Rain = 0
KME1 121629Z 06006KT 09/M02 A3042 RMK A01 T00921021  RH  045%=      5-min Rain = 0
KME1 121630Z 04006KT 09/M02 A3042 RMK A01 T00911022  RH  045%=      5-min Rain = 0
KME1 121631Z 06004KT 09/M02 A3042 RMK A01 T00881024  RH  045%=      5-min Rain = 0
KME1 121632Z 07006KT 09/M02 A3042 RMK A01 T00891020  RH  046%=      5-min Rain = 0
KME1 121633Z 05009KT 09/M02 A3042 RMK A01 T00911020  RH  046%=      5-min Rain = 0
KME1 121634Z 05008KT 09/M02 A3042 RMK A01 T00911022  RH  045%=      5-min Rain = 0
KME1 121635Z 05006KT 09/M02 A3042 RMK A01 T00891022  RH  046%=      5-min Rain = 0
KME1 121636Z 06006KT 09/M02 A3042 RMK A01 T00901021  RH  046%=      5-min Rain = 0
KME1 121637Z 07007KT 09/M02 A3042 RMK A01 T00891023  RH  045%=      5-min Rain = 0
KME1 121638Z 06008KT 09/M02 A3042 RMK A01 T00881022  RH  046%=      5-min Rain = 0
KME1 121639Z 05008KT 09/M02 A3042 RMK A01 T00891021  RH  046%=      5-min Rain = 0
KME1 121640Z 03005KT 09/M02 A3042 RMK A01 T00901021  RH  046%=      5-min Rain = 0
KME1 121641Z 05007KT 09/M02 A3042 RMK A01 T00891021  RH  046%=      5-min Rain = 0
KME1 121642Z 05007KT 09/M02 A3042 RMK A01 T00891022  RH  046%=      5-min Rain = 0
KME1 121643Z 05005KT 09/M02 A3041 RMK A01 T00891022  RH  046%=      5-min Rain = 0
KME1 121644Z 05005KT 09/M02 A3041 RMK A01 T00911019  RH  046%=      5-min Rain = 0
KME1 121645Z 03006KT 09/M02 A3041 RMK A01 T00941018  RH  045%=      5-min Rain = 0
KME1 121646Z 03009KT 10/M02 A3041 RMK A01 T00951019  RH  045%=      5-min Rain = 0
KME1 121647Z 04009KT 09/M02 A3041 RMK A01 T00941020  RH  045%=      5-min Rain = 0
KME1 121648Z 04007KT 10/M02 A3041 RMK A01 T00951019  RH  045%=      5-min Rain = 0
KME1 121649Z 03006KT 10/M02 A3041 RMK A01 T00951020  RH  045%=      5-min Rain = 0
KME1 121650Z 05006KT 10/M02 A3041 RMK A01 T00961017  RH  045%=      5-min Rain = 0
KME1 121651Z 03005G10KT 10/M02 A3041 RMK A01 T01021015  RH  044%=      5-min Rain = 0
KME1 121652Z 05008KT 10/M02 A3041 RMK A01 T01031017  RH  043%=      5-min Rain = 0
KME1 121653Z 06008KT 10/M02 A3041 RMK A01 T01031019  RH  043%=      5-min Rain = 0
KME1 121654Z 05011KT 10/M02 A3041 RMK A01 T01001020  RH  043%=      5-min Rain = 0
KME1 121655Z 06008KT 10/M02 A3041 RMK A01 T00971022  RH  043%=      5-min Rain = 0
KME1 121656Z 06008KT 10/M02 A3041 RMK A01 T00961021  RH  044%=      5-min Rain = 0
KME1 121657Z 09006KT 10/M02 A3041 RMK A01 T00971020  RH  044%=      5-min Rain = 0
KME1 121658Z 06006KT 10/M02 A3041 RMK A01 T00951022  RH  044%=      5-min Rain = 0
KME1 121659Z 07007KT 10/M02 A3041 RMK A01 T00971020  RH  044%=      5-min Rain = 0
KME1 121700Z 07010KT 10/M02 A3041 RMK A01 T00981020  RH  044%=      5-min Rain = 0
KME1 121701Z 06008KT 10/M02 A3041 RMK A01 T00981021  RH  043%=      5-min Rain = 0
KME1 121702Z 05006KT 10/M02 A3041 RMK A01 T00961023  RH  043%=      5-min Rain = 0
KME1 121703Z 06004KT 10/M02 A3041 RMK A01 T00951023  RH  044%=      5-min Rain = 0
KME1 121704Z 06006KT 10/M02 A3041 RMK A01 T00961020  RH  044%=      5-min Rain = 0
KME1 121705Z 07008KT 10/M02 A3041 RMK A01 T00991019  RH  044%=      5-min Rain = 0
KME1 121706Z 08007KT 10/M02 A3041 RMK A01 T00981021  RH  043%=      5-min Rain = 0
KME1 121707Z 06008KT 10/M02 A3041 RMK A01 T00981020  RH  044%=      5-min Rain = 0
KME1 121708Z 04009KT 10/M02 A3041 RMK A01 T00981021  RH  043%=      5-min Rain = 0
KME1 121709Z 04008KT 10/M02 A3042 RMK A01 T00981021  RH  043%=      5-min Rain = 0
KME1 121710Z 03006KT 10/M02 A3041 RMK A01 T00971022  RH  043%=      5-min Rain = 0
KME1 121711Z 03007KT 10/M02 A3041 RMK A01 T00961022  RH  043%=      5-min Rain = 0
KME1 121712Z 05007KT 10/M02 A3041 RMK A01 T00981020  RH  044%=      5-min Rain = 0
KME1 121713Z 08006KT 10/M02 A3041 RMK A01 T01001020  RH  043%=      5-min Rain = 0
KME1 121714Z 07007KT 10/M02 A3041 RMK A01 T01031019  RH  042%=      5-min Rain = 0
KME1 121715Z 08007KT 11/M02 A3041 RMK A01 T01071018  RH  042%=      5-min Rain = 0
KME1 121716Z 07008KT 11/M02 A3041 RMK A01 T01121016  RH  041%=      5-min Rain = 0
KME1 121717Z 07008KT 11/M02 A3041 RMK A01 T01121020  RH  040%=      5-min Rain = 0
KME1 121718Z 06008KT 11/M02 A3041 RMK A01 T01101020  RH  040%=      5-min Rain = 0
KME1 121719Z 05007KT 11/M02 A3041 RMK A01 T01101020  RH  040%=      5-min Rain = 0
KME1 121720Z 04005KT 11/M02 A3041 RMK A01 T01101019  RH  041%=      5-min Rain = 0
KME1 121721Z 04007KT 11/M02 A3041 RMK A01 T01121019  RH  040%=      5-min Rain = 0
KME1 121722Z 06010KT 11/M02 A3041 RMK A01 T01121021  RH  040%=      5-min Rain = 0
KME1 121723Z 06008KT 11/M02 A3041 RMK A01 T01101021  RH  040%=      5-min Rain = 0
KME1 121724Z 07008KT 11/M02 A3041 RMK A01 T01081024  RH  040%=      5-min Rain = 0
KME1 121725Z 07007KT 11/M02 A3041 RMK A01 T01061024  RH  040%=      5-min Rain = 0
KME1 121726Z 05008KT 11/M02 A3041 RMK A01 T01071021  RH  041%=      5-min Rain = 0
KME1 121727Z 06008KT 11/M02 A3041 RMK A01 T01091021  RH  040%=      5-min Rain = 0
KME1 121728Z 06007KT 11/M02 A3041 RMK A01 T01091022  RH  040%=      5-min Rain = 0
KME1 121729Z 06008KT 11/M02 A3041 RMK A01 T01101020  RH  040%=      5-min Rain = 0
KME1 121730Z 05007KT 11/M02 A3041 RMK A01 T01111020  RH  040%=      5-min Rain = 0
KME1 121731Z 06008KT 11/M02 A3041 RMK A01 T01101023  RH  039%=      5-min Rain = 0
KME1 121732Z 06008KT 11/M02 A3041 RMK A01 T01091023  RH  040%=      5-min Rain = 0
KME1 121733Z 06008KT 11/M02 A3041 RMK A01 T01091024  RH  039%=      5-min Rain = 0
KME1 121734Z 08008KT 11/M02 A3041 RMK A01 T01101022  RH  040%=      5-min Rain = 0
KME1 121735Z 08007KT 11/M02 A3041 RMK A01 T01111022  RH  040%=      5-min Rain = 0
KME1 121736Z 05006KT 11/M02 A3041 RMK A01 T01141018  RH  040%=      5-min Rain = 0
KME1 121737Z 06005KT 12/M02 A3041 RMK A01 T01151021  RH  039%=      5-min Rain = 0
KME1 121738Z 09005KT 11/M02 A3041 RMK A01 T01141022  RH  039%=      5-min Rain = 0
KME1 121739Z 10004KT 12/M02 A3041 RMK A01 T01151021  RH  038%=      5-min Rain = 0
KME1 121740Z 09005KT 12/M02 A304 RMK A01 T01151022  RH  038%=      5-min Rain = 0
KME1 121741Z 10006KT 12/M02 A304 RMK A01 T01161020  RH  039%=      5-min Rain = 0
KME1 121742Z 09005KT 12/M02 A304 RMK A01 T01161020  RH  039%=      5-min Rain = 0
KME1 121743Z 09007KT 12/M02 A304 RMK A01 T01171019  RH  039%=      5-min Rain = 0
KME1 121744Z 10006KT 12/M02 A304 RMK A01 T01161021  RH  038%=      5-min Rain = 0
KME1 121745Z 08007KT 12/M02 A304 RMK A01 T01171021  RH  038%=      5-min Rain = 0
KME1 121746Z 07009KT 12/M02 A304 RMK A01 T01161022  RH  038%=      5-min Rain = 0
KME1 121747Z 08008KT 12/M02 A304 RMK A01 T01151023  RH  038%=      5-min Rain = 0
KME1 121748Z 06007KT 11/M02 A304 RMK A01 T01131024  RH  038%=      5-min Rain = 0
KME1 121749Z 06005KT 11/M03 A304 RMK A01 T01111025  RH  039%=      5-min Rain = 0
KME1 121750Z 09006KT 11/M02 A3039 RMK A01 T01111024  RH  039%=      5-min Rain = 0
KME1 121751Z 06008KT 12/M02 A3039 RMK A01 T01151020  RH  039%=      5-min Rain = 0
KME1 121752Z 05010KT 12/M02 A3039 RMK A01 T01181022  RH  038%=      5-min Rain = 0
KME1 121753Z 07009KT 12/M03 A3039 RMK A01 T01181025  RH  037%=      5-min Rain = 0
KME1 121754Z 08007KT 12/M03 A3039 RMK A01 T01151026  RH  037%=      5-min Rain = 0
KME1 121755Z 09007KT 12/M02 A3039 RMK A01 T01151024  RH  038%=      5-min Rain = 0
KME1 121756Z 08007KT 12/M02 A3039 RMK A01 T01171023  RH  038%=      5-min Rain = 0
KME1 121757Z 05010KT 12/M02 A3039 RMK A01 T01181023  RH  037%=      5-min Rain = 0
KME1 121758Z 04009KT 12/M03 A3039 RMK A01 T01201025  RH  036%=      5-min Rain = 0
KME1 121759Z 04010KT 12/M02 A3039 RMK A01 T01221023  RH  036%=      5-min Rain = 0
KME1 121800Z 04009KT 12/M03 A3039 RMK A01 T01211025  RH  036%=      5-min Rain = 0
KME1 121801Z 04011KT 12/M03 A3039 RMK A01 T01211026  RH  036%=      5-min Rain = 0
KME1 121802Z 05010KT 12/M03 A3039 RMK A01 T01201025  RH  036%=      5-min Rain = 0
KME1 121803Z 05012KT 12/M03 A3039 RMK A01 T01221025  RH  036%=      5-min Rain = 0
KME1 121804Z 05009KT 12/M03 A3039 RMK A01 T01201026  RH  036%=      5-min Rain = 0
KME1 121805Z 05009KT 12/M03 A3039 RMK A01 T01191025  RH  037%=      5-min Rain = 0
KME1 121806Z 08008KT 12/M02 A3039 RMK A01 T01191024  RH  037%=      5-min Rain = 0
KME1 121807Z 08006KT 12/M02 A3038 RMK A01 T01191022  RH  037%=      5-min Rain = 0
KME1 121808Z 03009KT 12/M02 A3038 RMK A01 T01211021  RH  037%=      5-min Rain = 0
KME1 121809Z 03008KT 12/M02 A3038 RMK A01 T01221022  RH  037%=      5-min Rain = 0
KME1 121810Z 04005KT 12/M02 A3038 RMK A01 T01241022  RH  036%=      5-min Rain = 0
KME1 121811Z 07007KT 13/M02 A3038 RMK A01 T01271020  RH  036%=      5-min Rain = 0
KME1 121812Z 08007KT 13/M02 A3038 RMK A01 T01261023  RH  035%=      5-min Rain = 0
KME1 121813Z 08009KT 12/M03 A3038 RMK A01 T01221025  RH  036%=      5-min Rain = 0
KME1 121814Z 08010KT 12/M03 A3038 RMK A01 T01221025  RH  036%=      5-min Rain = 0
KME1 121815Z 09007KT 12/M02 A3038 RMK A01 T01231024  RH  036%=      5-min Rain = 0
KME1 121816Z 10006KT 12/M02 A3038 RMK A01 T01231024  RH  036%=      5-min Rain = 0
KME1 121817Z 08008KT 13/M03 A3037 RMK A01 T01251025  RH  035%=      5-min Rain = 0
KME1 121818Z 06008KT 13/M02 A3037 RMK A01 T01261023  RH  035%=      5-min Rain = 0
KME1 121819Z 08010KT 13/M03 A3037 RMK A01 T01251025  RH  035%=      5-min Rain = 0
KME1 121820Z 08008KT 12/M03 A3037 RMK A01 T01241028  RH  035%=      5-min Rain = 0
KME1 121821Z 09008KT 12/M03 A3037 RMK A01 T01241026  RH  035%=      5-min Rain = 0
KME1 121822Z 09008KT 13/M03 A3037 RMK A01 T01251025  RH  035%=      5-min Rain = 0
KME1 121823Z 11005KT 13/M03 A3037 RMK A01 T01251026  RH  035%=      5-min Rain = 0
KME1 121824Z 11008KT 13/M02 A3037 RMK A01 T01251024  RH  035%=      5-min Rain = 0
KME1 121825Z 09009KT 13/M02 A3037 RMK A01 T01261024  RH  035%=      5-min Rain = 0
KME1 121826Z 08009KT 13/M02 A3037 RMK A01 T01261023  RH  035%=      5-min Rain = 0
KME1 121827Z 05008KT 13/M02 A3037 RMK A01 T01261022  RH  036%=      5-min Rain = 0
KME1 121828Z 04011KT 13/M02 A3037 RMK A01 T01321020  RH  035%=      5-min Rain = 0
KME1 121829Z 05012KT 13/M02 A3037 RMK A01 T01331023  RH  034%=      5-min Rain = 0
KME1 121830Z 05011KT 13/M02 A3037 RMK A01 T01321024  RH  034%=      5-min Rain = 0
KME1 121831Z 04007KT 13/M02 A3037 RMK A01 T01331022  RH  034%=      5-min Rain = 0
KME1 121832Z 05006KT 13/M02 A3037 RMK A01 T01341022  RH  034%=      5-min Rain = 0
KME1 121833Z 07010KT 13/M03 A3037 RMK A01 T01311027  RH  033%=      5-min Rain = 0
KME1 121834Z 07004G9KT 13/M03 A3037 RMK A01 T01251032  RH  033%=      5-min Rain = 0
KME1 121835Z 10005KT 12/M03 A3036 RMK A01 T01241030  RH  034%=      5-min Rain = 0
KME1 121836Z 10009KT 13/M03 A3036 RMK A01 T01261027  RH  034%=      5-min Rain = 0
KME1 121837Z 09010G15KT 13/M03 A3036 RMK A01 T01281028  RH  034%=      5-min Rain = 0
KME1 121838Z 07007KT 13/M03 A3036 RMK A01 T01281029  RH  033%=      5-min Rain = 0
KME1 121839Z 08006G13KT 13/M03 A3036 RMK A01 T01301028  RH  033%=      5-min Rain = 0
KME1 121840Z 07008KT 13/M03 A3036 RMK A01 T01311029  RH  033%=      5-min Rain = 0
KME1 121841Z 07006KT 13/M03 A3036 RMK A01 T01311030  RH  032%=      5-min Rain = 0
KME1 121842Z 06007KT 13/M03 A3036 RMK A01 T01301029  RH  033%=      5-min Rain = 0
KME1 121843Z 05005KT 13/M03 A3036 RMK A01 T01331027  RH  033%=      5-min Rain = 0
KME1 121844Z 06006KT 13/M03 A3036 RMK A01 T01321029  RH  033%=      5-min Rain = 0
KME1 121845Z 06008KT 13/M03 A3036 RMK A01 T01311030  RH  033%=      5-min Rain = 0
KME1 121846Z 06007KT 13/M03 A3036 RMK A01 T01331027  RH  033%=      5-min Rain = 0
KME1 121847Z 08005KT 13/M03 A3036 RMK A01 T01331026  RH  033%=      5-min Rain = 0
KME1 121848Z 11005KT 13/M03 A3036 RMK A01 T01311032  RH  032%=      5-min Rain = 0
KME1 121849Z 10008KT 13/M03 A3036 RMK A01 T01321028  RH  033%=      5-min Rain = 0
KME1 121850Z 08008KT 14/M02 A3036 RMK A01 T01361023  RH  033%=      5-min Rain = 0
KME1 121851Z 08009KT 14/M02 A3036 RMK A01 T01401022  RH  033%=      5-min Rain = 0
KME1 121852Z 08006KT 14/M03 A3036 RMK A01 T01391026  RH  032%=      5-min Rain = 0
KME1 121853Z 07008KT 13/M03 A3035 RMK A01 T01341029  RH  032%=      5-min Rain = 0
KME1 121854Z 09006KT 13/M03 A3035 RMK A01 T01311029  RH  033%=      5-min Rain = 0
KME1 121855Z 09004KT 13/M03 A3035 RMK A01 T01301027  RH  033%=      5-min Rain = 0
KME1 121856Z 07007KT 14/M02 A3035 RMK A01 T01351023  RH  033%=      5-min Rain = 0
KME1 121857Z 08007KT 14/M03 A3035 RMK A01 T01391026  RH  032%=      5-min Rain = 0
KME1 121858Z 09008KT 14/M03 A3035 RMK A01 T01391030  RH  031%=      5-min Rain = 0
KME1 121859Z 09007KT 14/M03 A3035 RMK A01 T01401032  RH  030%=      5-min Rain = 0
KME1 121900Z 10007KT 14/M03 A3035 RMK A01 T01431033  RH  029%=      5-min Rain = 0
KME1 121901Z 11005KT 14/M03 A3035 RMK A01 T01431033  RH  029%=      5-min Rain = 0
KME1 121902Z 07005KT 14/M03 A3035 RMK A01 T01421034  RH  030%=      5-min Rain = 0
KME1 121903Z 08005KT 14/M03 A3035 RMK A01 T01411033  RH  030%=      5-min Rain = 0
KME1 121904Z 12009G14KT 14/M04 A3035 RMK A01 T01381035  RH  030%=      5-min Rain = 0
KME1 121905Z 11010KT 14/M03 A3035 RMK A01 T01391033  RH  030%=      5-min Rain = 0
KME1 121906Z 11007KT 14/M03 A3035 RMK A01 T01431030  RH  030%=      5-min Rain = 0
KME1 121907Z 09006KT 14/M03 A3034 RMK A01 T01421030  RH  030%=      5-min Rain = 0
KME1 121908Z 06006KT 15/M03 A3034 RMK A01 T01451026  RH  031%=      5-min Rain = 0
KME1 121909Z 09007KT 14/M03 A3034 RMK A01 T01431029  RH  030%=      5-min Rain = 0
KME1 121910Z 11008KT 14/M03 A3034 RMK A01 T01431031  RH  030%=      5-min Rain = 0
KME1 121911Z 11006KT 14/M04 A3034 RMK A01 T01441035  RH  029%=      5-min Rain = 0
KME1 121912Z 11007KT 14/M04 A3034 RMK A01 T01421037  RH  029%=      5-min Rain = 0
KME1 121913Z 08009KT 14/M04 A3034 RMK A01 T01421038  RH  029%=      5-min Rain = 0
KME1 121914Z 07009KT 14/M05 A3034 RMK A01 T01441045  RH  027%=      5-min Rain = 0
KME1 121915Z 08006G13KT 14/M05 A3034 RMK A01 T01411048  RH  027%=      5-min Rain = 0
KME1 121916Z 09010KT 14/M05 A3034 RMK A01 T01391046  RH  027%=      5-min Rain = 0
KME1 121917Z 07008KT 14/M04 A3034 RMK A01 T01411044  RH  027%=      5-min Rain = 0
KME1 121918Z 09008KT 14/M04 A3034 RMK A01 T01421041  RH  028%=      5-min Rain = 0
KME1 121919Z 08006KT 14/M04 A3033 RMK A01 T01411038  RH  029%=      5-min Rain = 0
KME1 121920Z 07008KT 14/M03 A3033 RMK A01 T01431034  RH  029%=      5-min Rain = 0
KME1 121921Z 09006KT 14/M04 A3033 RMK A01 T01421038  RH  029%=      5-min Rain = 0
KME1 121922Z 06006KT 14/M04 A3033 RMK A01 T01381040  RH  029%=      5-min Rain = 0
KME1 121923Z 07004KT 14/M04 A3033 RMK A01 T01381041  RH  029%=      5-min Rain = 0
KME1 121924Z 06008KT 14/M04 A3033 RMK A01 T01381038  RH  029%=      5-min Rain = 0
KME1 121925Z 07006KT 14/M04 A3033 RMK A01 T01401037  RH  029%=      5-min Rain = 0
KME1 121926Z 09008KT 14/M04 A3033 RMK A01 T01431036  RH  029%=      5-min Rain = 0
KME1 121927Z 10006KT 14/M04 A3033 RMK A01 T01431043  RH  027%=      5-min Rain = 0
KME1 121928Z 10004KT 14/M05 A3033 RMK A01 T01401048  RH  027%=      5-min Rain = 0
KME1 121929Z 05004KT 14/M05 A3033 RMK A01 T01401046  RH  027%=      5-min Rain = 0
KME1 121930Z 04007KT 14/M04 A3032 RMK A01 T01441036  RH  029%=      5-min Rain = 0
KME1 121931Z 07011KT 15/M03 A3032 RMK A01 T01481033  RH  029%=      5-min Rain = 0
KME1 121932Z 05011KT 15/M04 A3032 RMK A01 T01471036  RH  028%=      5-min Rain = 0
KME1 121933Z 05012KT 15/M04 A3033 RMK A01 T01451042  RH  027%=      5-min Rain = 0
KME1 121934Z 05011KT 14/M04 A3033 RMK A01 T01431041  RH  028%=      5-min Rain = 0
KME1 121935Z 07009KT 14/M04 A3033 RMK A01 T01431042  RH  028%=      5-min Rain = 0
KME1 121936Z 06008KT 14/M04 A3032 RMK A01 T01431044  RH  027%=      5-min Rain = 0
KME1 121937Z 07008KT 14/M05 A3032 RMK A01 T01421050  RH  026%=      5-min Rain = 0
KME1 121938Z 08008KT 14/M05 A3032 RMK A01 T01411049  RH  026%=      5-min Rain = 0
KME1 121939Z 07008KT 14/M05 A3032 RMK A01 T01411049  RH  027%=      5-min Rain = 0
KME1 121940Z 07007KT 14/M05 A3032 RMK A01 T01401046  RH  027%=      5-min Rain = 0
KME1 121941Z 06005KT 14/M05 A3032 RMK A01 T01381047  RH  027%=      5-min Rain = 0
KME1 121942Z 06006KT 14/M05 A3032 RMK A01 T01391045  RH  028%=      5-min Rain = 0
KME1 121943Z 03003KT 14/M05 A3032 RMK A01 T01431052  RH  026%=      5-min Rain = 0
KME1 121944Z 09008KT 14/M05 A3032 RMK A01 T01431052  RH  026%=      5-min Rain = 0
KME1 121945Z 09007KT 15/M05 A3032 RMK A01 T01481045  RH  026%=      5-min Rain = 0
KME1 121946Z 07007KT 15/M05 A3032 RMK A01 T01531045  RH  025%=      5-min Rain = 0
KME1 121947Z 06006KT 15/M05 A3032 RMK A01 T01541047  RH  025%=      5-min Rain = 0
KME1 121948Z 06009KT 15/M05 A3032 RMK A01 T01541046  RH  025%=      5-min Rain = 0
KME1 121949Z 07008KT 15/M05 A3032 RMK A01 T01511045  RH  025%=      5-min Rain = 0
KME1 121950Z 05010KT 15/M05 A3032 RMK A01 T01511046  RH  025%=      5-min Rain = 0
KME1 121951Z 05009KT 15/M05 A3032 RMK A01 T01501049  RH  025%=      5-min Rain = 0
KME1 121952Z 07008KT 15/M05 A3032 RMK A01 T01481051  RH  025%=      5-min Rain = 0
KME1 121953Z 06007KT 14/M06 A3032 RMK A01 T01441055  RH  025%=      5-min Rain = 0
KME1 121954Z 07006KT 14/M06 A3031 RMK A01 T01431056  RH  025%=      5-min Rain = 0
KME1 121955Z 06004KT 15/M06 A3031 RMK A01 T01451058  RH  024%=      5-min Rain = 0
KME1 121956Z 09005KT 14/M06 A3031 RMK A01 T01441057  RH  024%=      5-min Rain = 0
KME1 121957Z 10007KT 15/M05 A3031 RMK A01 T01461047  RH  026%=      5-min Rain = 0
KME1 121958Z 10006KT 15/M04 A3031 RMK A01 T01471043  RH  027%=      5-min Rain = 0
KME1 121959Z 06008KT 15/M04 A3031 RMK A01 T01481040  RH  027%=      5-min Rain = 0
KME1 122000Z 06008KT 15/M04 A3031 RMK A01 T01491042  RH  026%=      5-min Rain = 0
KME1 122001Z 05008KT 15/M04 A3031 RMK A01 T01481043  RH  026%=      5-min Rain = 0
KME1 122002Z 04006KT 15/M05 A3031 RMK A01 T01461045  RH  026%=      5-min Rain = 0
KME1 122003Z 03004KT 15/M04 A3031 RMK A01 T01451044  RH  027%=      5-min Rain = 0
KME1 122004Z 05004KT 14/M05 A3031 RMK A01 T01441046  RH  026%=      5-min Rain = 0
KME1 122005Z 03008KT 15/M04 A3031 RMK A01 T01451044  RH  027%=      5-min Rain = 0
KME1 122006Z 03009KT 15/M04 A3031 RMK A01 T01511038  RH  027%=      5-min Rain = 0
KME1 122007Z 04004KT 15/M04 A303 RMK A01 T01541041  RH  026%=      5-min Rain = 0
KME1 122008Z 04006KT 15/M04 A3031 RMK A01 T01521043  RH  026%=      5-min Rain = 0
KME1 122009Z 04006KT 15/M04 A303 RMK A01 T01541041  RH  026%=      5-min Rain = 0
KME1 122010Z 07006KT 16/M04 A303 RMK A01 T01581043  RH  025%=      5-min Rain = 0
KME1 122011Z 07009KT 16/M04 A303 RMK A01 T01571042  RH  025%=      5-min Rain = 0
KME1 122012Z 05005KT 15/M04 A303 RMK A01 T01541043  RH  025%=      5-min Rain = 0
KME1 122013Z 04008KT 15/M04 A303 RMK A01 T01531041  RH  026%=      5-min Rain = 0
KME1 122014Z 05008KT 16/M04 A303 RMK A01 T01551036  RH  027%=      5-min Rain = 0
KME1 122015Z 04008KT 16/M03 A303 RMK A01 T01591033  RH  027%=      5-min Rain = 0
KME1 122016Z 04007KT 16/M04 A303 RMK A01 T01591035  RH  026%=      5-min Rain = 0
KME1 122017Z 04006KT 16/M04 A303 RMK A01 T01571037  RH  026%=      5-min Rain = 0
KME1 122018Z 03004G9KT 15/M04 A303 RMK A01 T01541040  RH  026%=      5-min Rain = 0
KME1 122019Z 03008KT 15/M04 A303 RMK A01 T01521041  RH  026%=      5-min Rain = 0
KME1 122020Z 02010KT 15/M04 A303 RMK A01 T01541041  RH  026%=      5-min Rain = 0
KME1 122021Z 02007KT 15/M04 A303 RMK A01 T01531042  RH  026%=      5-min Rain = 0
KME1 122022Z 03006KT 15/M04 A303 RMK A01 T01531042  RH  026%=      5-min Rain = 0
KME1 122023Z 04009KT 15/M04 A303 RMK A01 T01541041  RH  026%=      5-min Rain = 0
KME1 122024Z 03007KT 16/M04 A303 RMK A01 T01561040  RH  026%=      5-min Rain = 0
KME1 122025Z 02005KT 16/M04 A303 RMK A01 T01561043  RH  025%=      5-min Rain = 0
KME1 122026Z 04005KT 15/M05 A303 RMK A01 T01531046  RH  025%=      5-min Rain = 0
KME1 122027Z 05007KT 15/M05 A303 RMK A01 T01501048  RH  025%=      5-min Rain = 0
KME1 122028Z 05007KT 15/M05 A303 RMK A01 T01531050  RH  024%=      5-min Rain = 0
KME1 122029Z 05008KT 16/M05 A303 RMK A01 T01591049  RH  024%=      5-min Rain = 0
KME1 122030Z 04007KT 16/M05 A303 RMK A01 T01581054  RH  023%=      5-min Rain = 0
KME1 122031Z 04004KT 15/M05 A303 RMK A01 T01541053  RH  023%=      5-min Rain = 0
KME1 122032Z 04003KT 15/M05 A3029 RMK A01 T01501054  RH  024%=      5-min Rain = 0
KME1 122033Z 06008KT 15/M05 A3029 RMK A01 T01501050  RH  025%=      5-min Rain = 0
KME1 122034Z 05009KT 15/M05 A3029 RMK A01 T01521047  RH  025%=      5-min Rain = 0
KME1 122035Z 04006KT 16/M05 A303 RMK A01 T01551046  RH  025%=      5-min Rain = 0
KME1 122036Z 02003KT 16/M05 A3029 RMK A01 T01551048  RH  024%=      5-min Rain = 0
KME1 122037Z 04006KT 15/M05 A3029 RMK A01 T01531047  RH  025%=      5-min Rain = 0
KME1 122038Z 02008KT 15/M05 A3029 RMK A01 T01521046  RH  025%=      5-min Rain = 0
KME1 122039Z 03009KT 15/M05 A3029 RMK A01 T01521047  RH  025%=      5-min Rain = 0
KME1 122040Z 04009KT 15/M04 A3029 RMK A01 T01541042  RH  026%=      5-min Rain = 0
KME1 122041Z 05004G9KT 16/M04 A3029 RMK A01 T01561043  RH  025%=      5-min Rain = 0
KME1 122042Z 04005KT 15/M05 A3029 RMK A01 T01531046  RH  025%=      5-min Rain = 0
KME1 122043Z 05007KT 15/M05 A3029 RMK A01 T01521048  RH  025%=      5-min Rain = 0
KME1 122044Z 07008KT 15/M04 A3029 RMK A01 T01521044  RH  025%=      5-min Rain = 0
KME1 122045Z 04010KT 15/M04 A3029 RMK A01 T01541040  RH  026%=      5-min Rain = 0
KME1 122046Z 05008KT 16/M04 A3029 RMK A01 T01561039  RH  026%=      5-min Rain = 0
KME1 122047Z 08007KT 16/M04 A3029 RMK A01 T01591040  RH  025%=      5-min Rain = 0
KME1 122048Z 10006KT 16/M04 A3029 RMK A01 T01581043  RH  025%=      5-min Rain = 0
KME1 122049Z 13005KT 16/M04 A3029 RMK A01 T01551042  RH  025%=      5-min Rain = 0
KME1 122050Z 12002KT 16/M04 A3029 RMK A01 T01561044  RH  025%=      5-min Rain = 0
KME1 122051Z 09005KT 16/M04 A3029 RMK A01 T01571043  RH  025%=      5-min Rain = 0
KME1 122052Z 06005KT 16/M05 A3029 RMK A01 T01571045  RH  025%=      5-min Rain = 0
KME1 122053Z 07008KT 16/M05 A3029 RMK A01 T01571045  RH  025%=      5-min Rain = 0
KME1 122054Z 09008KT 16/M05 A3029 RMK A01 T01581049  RH  024%=      5-min Rain = 0
KME1 122055Z 08005KT 16/M05 A3028 RMK A01 T01551054  RH  023%=      5-min Rain = 0
KME1 122056Z 05008KT 15/M06 A3028 RMK A01 T01541057  RH  023%=      5-min Rain = 0
KME1 122057Z 05009KT 15/M07 A3028 RMK A01 T01531066  RH  021%=      5-min Rain = 0
KME1 122058Z 05010KT 16/M07 A3028 RMK A01 T01551068  RH  021%=      5-min Rain = 0
KME1 122059Z 04010KT 16/M07 A3028 RMK A01 T01571071  RH  020%=      5-min Rain = 0
KME1 122100Z 04008KT 16/M07 A3028 RMK A01 T01571068  RH  021%=      5-min Rain = 0
KME1 122101Z 03007KT 16/M07 A3028 RMK A01 T01561067  RH  021%=      5-min Rain = 0
KME1 122102Z 02007KT 16/M06 A3028 RMK A01 T01571059  RH  022%=      5-min Rain = 0
KME1 122103Z 36006KT 16/M06 A3028 RMK A01 T01581060  RH  022%=      5-min Rain = 0
KME1 122104Z 36004KT 16/M06 A3028 RMK A01 T01551063  RH  022%=      5-min Rain = 0
KME1 122105Z 03004KT 15/M06 A3028 RMK A01 T01541060  RH  022%=      5-min Rain = 0
KME1 122106Z 05004KT 15/M06 A3028 RMK A01 T01541055  RH  023%=      5-min Rain = 0
KME1 122107Z 05003KT 16/M06 A3028 RMK A01 T01561055  RH  023%=      5-min Rain = 0
KME1 122108Z 06007KT 15/M06 A3028 RMK A01 T01541055  RH  023%=      5-min Rain = 0
KME1 122109Z 05006KT 15/M05 A3028 RMK A01 T01541048  RH  024%=      5-min Rain = 0
KME1 122110Z 09005KT 16/M05 A3028 RMK A01 T01551048  RH  024%=      5-min Rain = 0
KME1 122111Z 10005KT 16/M05 A3028 RMK A01 T01551047  RH  024%=      5-min Rain = 0
KME1 122112Z 13006KT 16/M05 A3028 RMK A01 T01551047  RH  025%=      5-min Rain = 0
KME1 122113Z 13004KT 16/M04 A3028 RMK A01 T01571044  RH  025%=      5-min Rain = 0
KME1 122114Z 11001KT 16/M05 A3028 RMK A01 T01581045  RH  024%=      5-min Rain = 0
KME1 122115Z 05003KT 16/M05 A3028 RMK A01 T01581045  RH  024%=      5-min Rain = 0
KME1 122116Z 05005KT 16/M05 A3028 RMK A01 T01591047  RH  024%=      5-min Rain = 0
KME1 122117Z 03005KT 16/M05 A3028 RMK A01 T01601048  RH  024%=      5-min Rain = 0
KME1 122118Z 00006KT 16/M05 A3027 RMK A01 T01591054  RH  023%=      5-min Rain = 0
KME1 122119Z 36005KT 16/M06 A3027 RMK A01 T01571055  RH  023%=      5-min Rain = 0
KME1 122120Z 08010KT 16/M05 A3027 RMK A01 T01571051  RH  023%=      5-min Rain = 0
KME1 122121Z 09007KT 16/M05 A3027 RMK A01 T01591047  RH  024%=      5-min Rain = 0
KME1 122122Z 06004KT 16/M05 A3027 RMK A01 T01571047  RH  024%=      5-min Rain = 0
KME1 122123Z 04004KT 16/M05 A3027 RMK A01 T01571046  RH  024%=      5-min Rain = 0
KME1 122124Z 06009KT 16/M05 A3027 RMK A01 T01571048  RH  024%=      5-min Rain = 0
KME1 122125Z 06006KT 16/M05 A3027 RMK A01 T01571048  RH  024%=      5-min Rain = 0
KME1 122126Z 04006KT 16/M05 A3027 RMK A01 T01601047  RH  024%=      5-min Rain = 0
KME1 122127Z 04006KT 16/M05 A3027 RMK A01 T01611049  RH  023%=      5-min Rain = 0
KME1 122128Z 04006KT 16/M05 A3027 RMK A01 T01631048  RH  023%=      5-min Rain = 0
KME1 122129Z 03005KT 16/M05 A3027 RMK A01 T01631050  RH  023%=      5-min Rain = 0
KME1 122130Z 05008KT 16/M05 A3027 RMK A01 T01611052  RH  023%=      5-min Rain = 0
KME1 122131Z 05007KT 16/M05 A3027 RMK A01 T01611053  RH  023%=      5-min Rain = 0
KME1 122132Z 03005KT 16/M05 A3027 RMK A01 T01591052  RH  023%=      5-min Rain = 0
KME1 122133Z 03002KT 16/M05 A3027 RMK A01 T01601052  RH  023%=      5-min Rain = 0
KME1 122134Z 04004KT 16/M06 A3027 RMK A01 T01591056  RH  022%=      5-min Rain = 0
KME1 122135Z 04008KT 16/M06 A3027 RMK A01 T01571059  RH  022%=      5-min Rain = 0
KME1 122136Z 05007KT 16/M06 A3027 RMK A01 T01591055  RH  023%=      5-min Rain = 0
KME1 122137Z 04007KT 16/M05 A3027 RMK A01 T01641052  RH  022%=      5-min Rain = 0
KME1 122138Z 04004KT 16/M06 A3027 RMK A01 T01621057  RH  022%=      5-min Rain = 0
KME1 122139Z 06006KT 16/M06 A3027 RMK A01 T01591058  RH  022%=      5-min Rain = 0
KME1 122140Z 03005KT 16/M06 A3027 RMK A01 T01581057  RH  022%=      5-min Rain = 0
KME1 122141Z 05005KT 16/M06 A3027 RMK A01 T01571057  RH  022%=      5-min Rain = 0
KME1 122142Z 07007KT 16/M06 A3027 RMK A01 T01591056  RH  022%=      5-min Rain = 0
KME1 122143Z 08006KT 16/M06 A3027 RMK A01 T01601057  RH  022%=      5-min Rain = 0
KME1 122144Z 05009KT 16/M06 A3027 RMK A01 T01601055  RH  022%=      5-min Rain = 0
KME1 122145Z 04007KT 16/M05 A3027 RMK A01 T01601050  RH  023%=      5-min Rain = 0
KME1 122146Z 04007KT 17/M05 A3027 RMK A01 T01651046  RH  023%=      5-min Rain = 0
KME1 122147Z 03005KT 17/M05 A3027 RMK A01 T01651051  RH  022%=      5-min Rain = 0
KME1 122148Z 06006KT 16/M05 A3027 RMK A01 T01641050  RH  023%=      5-min Rain = 0
KME1 122149Z 09003KT 17/M05 A3027 RMK A01 T01651049  RH  023%=      5-min Rain = 0
KME1 122150Z 08001KT 16/M05 A3026 RMK A01 T01641052  RH  022%=      5-min Rain = 0
KME1 122151Z 02002KT 16/M05 A3026 RMK A01 T01621052  RH  023%=      5-min Rain = 0
KME1 122152Z 03004KT 16/M05 A3026 RMK A01 T01621052  RH  023%=      5-min Rain = 0
KME1 122153Z 04007KT 16/M05 A3026 RMK A01 T01621053  RH  022%=      5-min Rain = 0
KME1 122154Z 05007KT 16/M06 A3026 RMK A01 T01611056  RH  022%=      5-min Rain = 0
KME1 122155Z 09006KT 16/M05 A3026 RMK A01 T01611052  RH  023%=      5-min Rain = 0
KME1 122156Z 08007KT 16/M05 A3026 RMK A01 T01611050  RH  023%=      5-min Rain = 0
KME1 122157Z 08006KT 16/M05 A3026 RMK A01 T01621049  RH  023%=      5-min Rain = 0
KME1 122158Z 08004KT 16/M05 A3026 RMK A01 T01601054  RH  023%=      5-min Rain = 0
KME1 122159Z 09004KT 16/M05 A3026 RMK A01 T01571053  RH  023%=      5-min Rain = 0
KME1 122200Z 10009KT 16/M05 A3026 RMK A01 T01581050  RH  023%=      5-min Rain = 0
KME1 122201Z 11008KT 16/M05 A3026 RMK A01 T01601050  RH  023%=      5-min Rain = 0
KME1 122202Z 11008KT 16/M05 A3026 RMK A01 T01601052  RH  023%=      5-min Rain = 0
KME1 122203Z 13007KT 16/M05 A3026 RMK A01 T01601052  RH  023%=      5-min Rain = 0
KME1 122204Z 13005KT 16/M05 A3026 RMK A01 T01591053  RH  023%=      5-min Rain = 0
KME1 122205Z 11002KT 16/M05 A3025 RMK A01 T01581054  RH  023%=      5-min Rain = 0
KME1 122206Z 10005KT 16/M05 A3026 RMK A01 T01571053  RH  023%=      5-min Rain = 0
KME1 122207Z 08007KT 16/M05 A3026 RMK A01 T01591054  RH  023%=      5-min Rain = 0
KME1 122208Z 07006KT 16/M06 A3025 RMK A01 T01591056  RH  022%=      5-min Rain = 0
KME1 122209Z 07004KT 16/M06 A3025 RMK A01 T01551057  RH  023%=      5-min Rain = 0
KME1 122210Z 09005KT 15/M06 A3025 RMK A01 T01531057  RH  023%=      5-min Rain = 0
KME1 122211Z 11005KT 15/M05 A3025 RMK A01 T01521054  RH  024%=      5-min Rain = 0
KME1 122212Z 07007KT 15/M05 A3025 RMK A01 T01541054  RH  023%=      5-min Rain = 0
KME1 122213Z 06007KT 15/M06 A3025 RMK A01 T01531058  RH  023%=      5-min Rain = 0
KME1 122214Z 05006KT 15/M06 A3025 RMK A01 T01521059  RH  023%=      5-min Rain = 0
KME1 122215Z 04007KT 15/M06 A3025 RMK A01 T01531058  RH  023%=      5-min Rain = 0
KME1 122216Z 03005KT 15/M06 A3025 RMK A01 T01521057  RH  023%=      5-min Rain = 0
KME1 122217Z 05005KT 15/M06 A3025 RMK A01 T01501055  RH  024%=      5-min Rain = 0
KME1 122218Z 05005KT 15/M05 A3025 RMK A01 T01521053  RH  024%=      5-min Rain = 0
KME1 122219Z 05005KT 15/M05 A3025 RMK A01 T01531053  RH  024%=      5-min Rain = 0
KME1 122220Z 07006KT 15/M05 A3025 RMK A01 T01531053  RH  024%=      5-min Rain = 0
KME1 122221Z 08007KT 15/M05 A3025 RMK A01 T01531053  RH  024%=      5-min Rain = 0
KME1 122222Z 08007KT 15/M05 A3025 RMK A01 T01541051  RH  024%=      5-min Rain = 0
KME1 122223Z 09006KT 16/M05 A3025 RMK A01 T01561048  RH  024%=      5-min Rain = 0
KME1 122224Z 08003KT 15/M05 A3025 RMK A01 T01541048  RH  024%=      5-min Rain = 0
KME1 122225Z 09005KT 15/M05 A3025 RMK A01 T01531047  RH  025%=      5-min Rain = 0
KME1 122226Z 08006KT 15/M05 A3025 RMK A01 T01541047  RH  025%=      5-min Rain = 0
KME1 122227Z 08004KT 15/M05 A3024 RMK A01 T01541051  RH  024%=      5-min Rain = 0
KME1 122228Z 06005KT 15/M05 A3024 RMK A01 T01531050  RH  024%=      5-min Rain = 0
KME1 122229Z 04008KT 15/M05 A3024 RMK A01 T01541049  RH  024%=      5-min Rain = 0
KME1 122230Z 04006KT 15/M05 A3024 RMK A01 T01531050  RH  024%=      5-min Rain = 0
KME1 122231Z 04006KT 15/M05 A3024 RMK A01 T01541049  RH  024%=      5-min Rain = 0
KME1 122232Z 05006KT 16/M05 A3024 RMK A01 T01551048  RH  024%=      5-min Rain = 0
KME1 122233Z 09004KT 16/M05 A3024 RMK A01 T01551047  RH  024%=      5-min Rain = 0
KME1 122234Z 09006KT 16/M05 A3024 RMK A01 T01561046  RH  024%=      5-min Rain = 0
KME1 122235Z 10005KT 16/M05 A3024 RMK A01 T01551048  RH  024%=      5-min Rain = 0
KME1 122236Z 09004KT 15/M05 A3024 RMK A01 T01531049  RH  024%=      5-min Rain = 0
KME1 122237Z 06006KT 15/M05 A3024 RMK A01 T01521048  RH  025%=      5-min Rain = 0
KME1 122238Z 07007KT 15/M05 A3024 RMK A01 T01531047  RH  025%=      5-min Rain = 0
KME1 122239Z 09007KT 15/M05 A3024 RMK A01 T01521048  RH  025%=      5-min Rain = 0
KME1 122240Z 09005KT 15/M05 A3024 RMK A01 T01501049  RH  025%=      5-min Rain = 0
KME1 122241Z 09007KT 15/M05 A3024 RMK A01 T01501048  RH  025%=      5-min Rain = 0
KME1 122242Z 10005KT 15/M05 A3024 RMK A01 T01501049  RH  025%=      5-min Rain = 0
KME1 122243Z 09004KT 15/M05 A3024 RMK A01 T01511048  RH  025%=      5-min Rain = 0
KME1 122244Z 08006KT 15/M05 A3024 RMK A01 T01511049  RH  025%=      5-min Rain = 0
KME1 122245Z 07007KT 15/M05 A3024 RMK A01 T01501050  RH  025%=      5-min Rain = 0
KME1 122246Z 09007KT 15/M05 A3024 RMK A01 T01501051  RH  024%=      5-min Rain = 0
KME1 122247Z 11007KT 15/M05 A3024 RMK A01 T01511054  RH  024%=      5-min Rain = 0
KME1 122248Z 11006KT 15/M06 A3024 RMK A01 T01511058  RH  023%=      5-min Rain = 0
KME1 122249Z 12008KT 15/M06 A3024 RMK A01 T01501057  RH  023%=      5-min Rain = 0
KME1 122250Z 09007KT 15/M06 A3024 RMK A01 T01511056  RH  023%=      5-min Rain = 0
KME1 122251Z 07004KT 15/M05 A3024 RMK A01 T01511054  RH  024%=      5-min Rain = 0
KME1 122252Z 07006KT 15/M05 A3024 RMK A01 T01521054  RH  024%=      5-min Rain = 0
KME1 122253Z 06004KT 15/M06 A3024 RMK A01 T01521056  RH  023%=      5-min Rain = 0
KME1 122254Z 08004KT 15/M06 A3024 RMK A01 T01521057  RH  023%=      5-min Rain = 0
KME1 122255Z 10004KT 15/M06 A3024 RMK A01 T01521057  RH  023%=      5-min Rain = 0
KME1 122256Z 09005KT 15/M06 A3024 RMK A01 T01531057  RH  023%=      5-min Rain = 0
KME1 122257Z 10004KT 15/M06 A3024 RMK A01 T01531058  RH  023%=      5-min Rain = 0
KME1 122258Z 11003KT 15/M06 A3024 RMK A01 T01521059  RH  023%=      5-min Rain = 0
KME1 122259Z 11003KT 15/M06 A3024 RMK A01 T01521060  RH  023%=      5-min Rain = 0
KME1 122300Z 10004KT 15/M06 A3024 RMK A01 T01521060  RH  023%=      5-min Rain = 0
KME1 122301Z 12006KT 15/M06 A3024 RMK A01 T01521064  RH  022%=      5-min Rain = 0
KME1 122302Z 10008KT 15/M06 A3023 RMK A01 T01521064  RH  022%=      5-min Rain = 0
KME1 122303Z 09008KT 15/M06 A3023 RMK A01 T01511057  RH  023%=      5-min Rain = 0
KME1 122304Z 08009KT 15/M06 A3023 RMK A01 T01511056  RH  024%=      5-min Rain = 0
KME1 122305Z 08006KT 15/M06 A3023 RMK A01 T01491056  RH  024%=      5-min Rain = 0
KME1 122306Z 08002KT 15/M06 A3023 RMK A01 T01481055  RH  024%=      5-min Rain = 0
KME1 122307Z 08006KT 15/M05 A3023 RMK A01 T01481054  RH  024%=      5-min Rain = 0
KME1 122308Z 08007KT 15/M05 A3023 RMK A01 T01481053  RH  024%=      5-min Rain = 0
KME1 122309Z 08005KT 15/M05 A3023 RMK A01 T01481051  RH  025%=      5-min Rain = 0
KME1 122310Z 09003KT 15/M05 A3023 RMK A01 T01491050  RH  025%=      5-min Rain = 0
KME1 122311Z 12004KT 15/M05 A3023 RMK A01 T01491050  RH  025%=      5-min Rain = 0
KME1 122312Z 12004KT 15/M05 A3023 RMK A01 T01491051  RH  025%=      5-min Rain = 0
KME1 122313Z 13005KT 15/M05 A3023 RMK A01 T01491050  RH  025%=      5-min Rain = 0
KME1 122314Z 12007KT 15/M05 A3023 RMK A01 T01491050  RH  025%=      5-min Rain = 0
KME1 122315Z 09006KT 15/M05 A3023 RMK A01 T01501050  RH  025%=      5-min Rain = 0
KME1 122316Z 07006KT 15/M05 A3023 RMK A01 T01501049  RH  025%=      5-min Rain = 0
KME1 122317Z 09007KT 15/M05 A3023 RMK A01 T01521050  RH  024%=      5-min Rain = 0
KME1 122318Z 09006KT 15/M05 A3023 RMK A01 T01521054  RH  024%=      5-min Rain = 0
KME1 122319Z 09007KT 15/M06 A3023 RMK A01 T01521055  RH  024%=      5-min Rain = 0
KME1 122320Z 08005KT 15/M06 A3023 RMK A01 T01521057  RH  023%=      5-min Rain = 0
KME1 122321Z 07006KT 15/M06 A3023 RMK A01 T01531057  RH  023%=      5-min Rain = 0
KME1 122322Z 07005KT 15/M06 A3023 RMK A01 T01541058  RH  023%=      5-min Rain = 0
KME1 122323Z 06006KT 15/M06 A3023 RMK A01 T01531059  RH  023%=      5-min Rain = 0
KME1 122324Z 06006KT 15/M06 A3023 RMK A01 T01521059  RH  023%=      5-min Rain = 0
KME1 122325Z 07004KT 15/M06 A3023 RMK A01 T01511058  RH  023%=      5-min Rain = 0
KME1 122326Z 07004KT 15/M06 A3023 RMK A01 T01511057  RH  023%=      5-min Rain = 0
KME1 122327Z 08006KT 15/M06 A3023 RMK A01 T01521056  RH  023%=      5-min Rain = 0
KME1 122328Z 09006KT 15/M06 A3023 RMK A01 T01511056  RH  023%=      5-min Rain = 0
KME1 122329Z 09004KT 15/M06 A3022 RMK A01 T01491056  RH  024%=      5-min Rain = 0
KME1 122330Z 08006KT 15/M06 A3022 RMK A01 T01491055  RH  024%=      5-min Rain = 0
KME1 122331Z 08009KT 15/M05 A3023 RMK A01 T01491054  RH  024%=      5-min Rain = 0
KME1 122332Z 07007KT 15/M06 A3023 RMK A01 T01481055  RH  024%=      5-min Rain = 0
KME1 122333Z 07006KT 15/M06 A3023 RMK A01 T01481055  RH  024%=      5-min Rain = 0
KME1 122334Z 06004KT 15/M05 A3023 RMK A01 T01471054  RH  024%=      5-min Rain = 0
KME1 122335Z 06005KT 15/M05 A3022 RMK A01 T01471053  RH  025%=      5-min Rain = 0
KME1 122336Z 06005KT 15/M05 A3022 RMK A01 T01481053  RH  025%=      5-min Rain = 0
KME1 122337Z 05005KT 15/M05 A3022 RMK A01 T01481054  RH  024%=      5-min Rain = 0
KME1 122338Z 06003KT 15/M05 A3022 RMK A01 T01481054  RH  024%=      5-min Rain = 0
KME1 122339Z 05004KT 15/M05 A3022 RMK A01 T01481053  RH  024%=      5-min Rain = 0
KME1 122340Z 04006KT 15/M05 A3022 RMK A01 T01481052  RH  025%=      5-min Rain = 0
KME1 122341Z 04007KT 15/M05 A3022 RMK A01 T01481052  RH  025%=      5-min Rain = 0
KME1 122342Z 08007KT 15/M05 A3023 RMK A01 T01481052  RH  025%=      5-min Rain = 0
KME1 122343Z 09006KT 15/M05 A3023 RMK A01 T01491054  RH  024%=      5-min Rain = 0
KME1 122344Z 10006KT 15/M06 A3023 RMK A01 T01481056  RH  024%=      5-min Rain = 0
KME1 122345Z 11006KT 15/M06 A3023 RMK A01 T01481057  RH  024%=      5-min Rain = 0
KME1 122346Z 11006KT 15/M06 A3023 RMK A01 T01471058  RH  024%=      5-min Rain = 0
KME1 122347Z 10005KT 15/M06 A3023 RMK A01 T01471056  RH  024%=      5-min Rain = 0
KME1 122348Z 10006KT 15/M06 A3023 RMK A01 T01471055  RH  024%=      5-min Rain = 0
KME1 122349Z 08005KT 15/M06 A3023 RMK A01 T01471055  RH  024%=      5-min Rain = 0
KME1 122350Z 08005KT 15/M06 A3023 RMK A01 T01471055  RH  024%=      5-min Rain = 0
KME1 122351Z 07007KT 15/M05 A3023 RMK A01 T01461054  RH  025%=      5-min Rain = 0
KME1 122352Z 06007KT 15/M05 A3023 RMK A01 T01461054  RH  025%=      5-min Rain = 0
KME1 122353Z 07005KT 15/M06 A3023 RMK A01 T01461055  RH  025%=      5-min Rain = 0
KME1 122354Z 10006KT 15/M05 A3023 RMK A01 T01451054  RH  025%=      5-min Rain = 0
KME1 122355Z 10006KT 15/M05 A3023 RMK A01 T01451053  RH  025%=      5-min Rain = 0
KME1 122356Z 08003KT 14/M05 A3023 RMK A01 T01441052  RH  025%=      5-min Rain = 0
KME1 122357Z 07007KT 14/M05 A3023 RMK A01 T01441051  RH  026%=      5-min Rain = 0
KME1 122358Z 07007KT 14/M05 A3023 RMK A01 T01441050  RH  026%=      5-min Rain = 0
KME1 122359Z 06008KT 14/M05 A3023 RMK A01 T01431050  RH  026%=      5-min Rain = 0
KME1 130000Z 07006KT 14/M05 A3023 RMK A01 T01431049  RH  026%=      5-min Rain = 0
KME1 130001Z 06005KT 14/M05 A3023 RMK A01 T01431049  RH  026%=      5-min Rain = 0
KME1 130002Z 06005KT 14/M05 A3023 RMK A01 T01431050  RH  026%=      5-min Rain = 0
KME1 130003Z 06006KT 14/M05 A3023 RMK A01 T01421050  RH  026%=      5-min Rain = 0
KME1 130004Z 06005KT 14/M05 A3023 RMK A01 T01421051  RH  026%=      5-min Rain = 0
KME1 130005Z 06005KT 14/M05 A3023 RMK A01 T01421051  RH  026%=      5-min Rain = 0
KME1 130006Z 07006KT 14/M05 A3023 RMK A01 T01421050  RH  026%=      5-min Rain = 0
KME1 130007Z 07006KT 14/M05 A3023 RMK A01 T01411051  RH  026%=      5-min Rain = 0
KME1 130008Z 09003KT 14/M05 A3023 RMK A01 T01411051  RH  026%=      5-min Rain = 0
KME1 130009Z 08003KT 14/M05 A3023 RMK A01 T01411051  RH  026%=      5-min Rain = 0
KME1 130010Z 09004KT 14/M05 A3023 RMK A01 T01411051  RH  026%=      5-min Rain = 0
KME1 130011Z 09005KT 14/M05 A3023 RMK A01 T01411050  RH  026%=      5-min Rain = 0
KME1 130012Z 07005KT 14/M05 A3023 RMK A01 T01401050  RH  026%=      5-min Rain = 0
KME1 130013Z 08005KT 14/M05 A3023 RMK A01 T01411049  RH  026%=      5-min Rain = 0
KME1 130014Z 07005KT 14/M05 A3023 RMK A01 T01411049  RH  026%=      5-min Rain = 0
KME1 130015Z 08004KT 14/M05 A3023 RMK A01 T01401049  RH  026%=      5-min Rain = 0
KME1 130016Z 08005KT 14/M05 A3023 RMK A01 T01401049  RH  027%=      5-min Rain = 0
KME1 130017Z 07004KT 14/M05 A3023 RMK A01 T01401049  RH  027%=      5-min Rain = 0
KME1 130018Z 07005KT 14/M05 A3023 RMK A01 T01401049  RH  027%=      5-min Rain = 0
KME1 130019Z 07005KT 14/M05 A3023 RMK A01 T01401048  RH  027%=      5-min Rain = 0
KME1 130020Z 07005KT 14/M05 A3023 RMK A01 T01401047  RH  027%=      5-min Rain = 0
KME1 130021Z 07004KT 14/M05 A3023 RMK A01 T01391047  RH  027%=      5-min Rain = 0
KME1 130022Z 08003KT 14/M05 A3023 RMK A01 T01391047  RH  027%=      5-min Rain = 0
KME1 130023Z 08004KT 14/M05 A3023 RMK A01 T01391046  RH  027%=      5-min Rain = 0
KME1 130024Z 07005KT 14/M05 A3023 RMK A01 T01381046  RH  028%=      5-min Rain = 0
KME1 130025Z 07005KT 14/M05 A3023 RMK A01 T01381045  RH  028%=      5-min Rain = 0
KME1 130026Z 07004KT 14/M05 A3023 RMK A01 T01381045  RH  028%=      5-min Rain = 0
KME1 130027Z 06005KT 14/M04 A3023 RMK A01 T01381044  RH  028%=      5-min Rain = 0
KME1 130028Z 06004KT 14/M04 A3023 RMK A01 T01371044  RH  028%=      5-min Rain = 0
KME1 130029Z 07005KT 14/M04 A3023 RMK A01 T01371044  RH  028%=      5-min Rain = 0
KME1 130030Z 07005KT 14/M04 A3023 RMK A01 T01371044  RH  028%=      5-min Rain = 0
KME1 130031Z 07004KT 14/M04 A3023 RMK A01 T01361044  RH  028%=      5-min Rain = 0
KME1 130032Z 07004KT 14/M04 A3023 RMK A01 T01361043  RH  028%=      5-min Rain = 0
KME1 130033Z 07004KT 14/M04 A3023 RMK A01 T01361044  RH  028%=      5-min Rain = 0
KME1 130034Z 07004KT 14/M04 A3023 RMK A01 T01361044  RH  028%=      5-min Rain = 0
KME1 130035Z 07005KT 14/M04 A3023 RMK A01 T01351044  RH  028%=      5-min Rain = 0
KME1 130036Z 07005KT 14/M04 A3023 RMK A01 T01351044  RH  029%=      5-min Rain = 0
KME1 130037Z 07004KT 14/M05 A3023 RMK A01 T01351045  RH  028%=      5-min Rain = 0
KME1 130038Z 07004KT 14/M05 A3023 RMK A01 T01351045  RH  028%=      5-min Rain = 0
KME1 130039Z 08004KT 13/M05 A3023 RMK A01 T01341045  RH  029%=      5-min Rain = 0
KME1 130040Z 07004KT 13/M05 A3023 RMK A01 T01341045  RH  028%=      5-min Rain = 0
KME1 130041Z 07004KT 13/M05 A3023 RMK A01 T01331045  RH  029%=      5-min Rain = 0
KME1 130042Z 07003KT 13/M05 A3023 RMK A01 T01331045  RH  029%=      5-min Rain = 0
KME1 130043Z 07004KT 13/M05 A3023 RMK A01 T01321046  RH  029%=      5-min Rain = 0
KME1 130044Z 07003KT 13/M05 A3023 RMK A01 T01311046  RH  029%=      5-min Rain = 0
KME1 130045Z 06003KT 13/M05 A3024 RMK A01 T01311046  RH  029%=      5-min Rain = 0
KME1 130046Z 06003KT 13/M05 A3024 RMK A01 T01301046  RH  029%=      5-min Rain = 0
KME1 130047Z 06003KT 13/M05 A3024 RMK A01 T01291046  RH  029%=      5-min Rain = 0
KME1 130048Z 06003KT 13/M05 A3024 RMK A01 T01281046  RH  029%=      5-min Rain = 0
KME1 130049Z 05003KT 13/M05 A3024 RMK A01 T01281046  RH  029%=      5-min Rain = 0
KME1 130050Z 06004KT 13/M05 A3023 RMK A01 T01271046  RH  030%=      5-min Rain = 0
KME1 130051Z 05004KT 13/M05 A3023 RMK A01 T01271046  RH  030%=      5-min Rain = 0
KME1 130052Z 05004KT 13/M05 A3023 RMK A01 T01261046  RH  030%=      5-min Rain = 0
KME1 130053Z 05004KT 13/M05 A3023 RMK A01 T01251047  RH  030%=      5-min Rain = 0
KME1 130054Z 05003KT 13/M05 A3023 RMK A01 T01251047  RH  030%=      5-min Rain = 0
KME1 130055Z 05003KT 12/M05 A3023 RMK A01 T01241047  RH  030%=      5-min Rain = 0
KME1 130056Z 05003KT 12/M05 A3023 RMK A01 T01241047  RH  030%=      5-min Rain = 0
KME1 130057Z 05003KT 12/M05 A3023 RMK A01 T01221047  RH  030%=      5-min Rain = 0
KME1 130058Z 05003KT 12/M05 A3023 RMK A01 T01221047  RH  030%=      5-min Rain = 0
KME1 130059Z 05003KT 12/M05 A3023 RMK A01 T01221047  RH  031%=      5-min Rain = 0
KME1 130100Z 05003KT 12/M05 A3023 RMK A01 T01211047  RH  031%=      5-min Rain = 0
KME1 130101Z 05003KT 12/M05 A3023 RMK A01 T01211046  RH  031%=      5-min Rain = 0
KME1 130102Z 05003KT 12/M05 A3023 RMK A01 T01201046  RH  031%=      5-min Rain = 0
KME1 130103Z 05003KT 12/M05 A3023 RMK A01 T01191046  RH  031%=      5-min Rain = 0
KME1 130104Z 05003KT 12/M05 A3023 RMK A01 T01181046  RH  031%=      5-min Rain = 0
KME1 130105Z 06003KT 12/M05 A3023 RMK A01 T01181045  RH  032%=      5-min Rain = 0
KME1 130106Z 06003KT 12/M05 A3023 RMK A01 T01171045  RH  032%=      5-min Rain = 0
KME1 130107Z 06003KT 12/M05 A3023 RMK A01 T01161046  RH  032%=      5-min Rain = 0
KME1 130108Z 06003KT 12/M05 A3023 RMK A01 T01161045  RH  032%=      5-min Rain = 0
KME1 130109Z 06003KT 12/M05 A3023 RMK A01 T01161045  RH  032%=      5-min Rain = 0
KME1 130110Z 06003KT 12/M05 A3023 RMK A01 T01161045  RH  032%=      5-min Rain = 0
KME1 130111Z 06003KT 12/M05 A3023 RMK A01 T01161045  RH  032%=      5-min Rain = 0
KME1 130112Z 06002KT 12/M05 A3023 RMK A01 T01161045  RH  032%=      5-min Rain = 0
KME1 130113Z 06002KT 12/M05 A3023 RMK A01 T01161045  RH  032%=      5-min Rain = 0
KME1 130114Z 05002KT 12/M04 A3023 RMK A01 T01161044  RH  032%=      5-min Rain = 0
KME1 130115Z 05002KT 12/M04 A3023 RMK A01 T01161044  RH  032%=      5-min Rain = 0
KME1 130116Z 05002KT 12/M04 A3023 RMK A01 T01171043  RH  032%=      5-min Rain = 0
KME1 130117Z 05002KT 12/M04 A3023 RMK A01 T01171043  RH  032%=      5-min Rain = 0
KME1 130118Z 05002KT 12/M04 A3023 RMK A01 T01171043  RH  032%=      5-min Rain = 0
KME1 130119Z 06002KT 12/M04 A3023 RMK A01 T01171042  RH  033%=      5-min Rain = 0
KME1 130120Z 05002KT 12/M04 A3023 RMK A01 T01161041  RH  033%=      5-min Rain = 0
KME1 130121Z 05001KT 12/M04 A3023 RMK A01 T01151042  RH  033%=      5-min Rain = 0
KME1 130122Z 04001KT 11/M04 A3024 RMK A01 T01141042  RH  033%=      5-min Rain = 0
KME1 130123Z 03001KT 11/M04 A3024 RMK A01 T01131042  RH  033%=      5-min Rain = 0
KME1 130124Z 02001KT 11/M04 A3024 RMK A01 T01131042  RH  033%=      5-min Rain = 0
KME1 130125Z 01002KT 11/M04 A3024 RMK A01 T01131041  RH  034%=      5-min Rain = 0
KME1 130126Z 02002KT 11/M04 A3024 RMK A01 T01121041  RH  034%=      5-min Rain = 0
KME1 130127Z 02002KT 11/M04 A3024 RMK A01 T01101041  RH  034%=      5-min Rain = 0
KME1 130128Z 01002KT 11/M04 A3024 RMK A01 T01091041  RH  035%=      5-min Rain = 0
KME1 130129Z 02002KT 11/M04 A3024 RMK A01 T01081041  RH  035%=      5-min Rain = 0
KME1 130130Z 02002KT 11/M04 A3024 RMK A01 T01071041  RH  035%=      5-min Rain = 0
KME1 130131Z 01002KT 11/M04 A3024 RMK A01 T01061041  RH  035%=      5-min Rain = 0
KME1 130132Z 02001KT 11/M04 A3024 RMK A01 T01061041  RH  035%=      5-min Rain = 0
KME1 130133Z 02001KT 11/M04 A3024 RMK A01 T01051041  RH  036%=      5-min Rain = 0
KME1 130134Z 01002KT 10/M04 A3024 RMK A01 T01041041  RH  036%=      5-min Rain = 0
KME1 130135Z 03001KT 10/M04 A3024 RMK A01 T01041041  RH  036%=      5-min Rain = 0
KME1 130136Z 03001KT 10/M04 A3024 RMK A01 T01041041  RH  036%=      5-min Rain = 0
KME1 130137Z 03001KT 10/M04 A3024 RMK A01 T01041042  RH  036%=      5-min Rain = 0
KME1 130138Z 03001KT 10/M04 A3024 RMK A01 T01041042  RH  036%=      5-min Rain = 0
KME1 130139Z 03001KT 10/M04 A3024 RMK A01 T01041042  RH  036%=      5-min Rain = 0
KME1 130140Z 03001KT 11/M04 A3024 RMK A01 T01051042  RH  035%=      5-min Rain = 0
KME1 130141Z 03001KT 11/M04 A3024 RMK A01 T01051042  RH  035%=      5-min Rain = 0
KME1 130142Z 03001KT 11/M04 A3024 RMK A01 T01051042  RH  035%=      5-min Rain = 0
KME1 130143Z 03001KT 11/M04 A3024 RMK A01 T01051042  RH  035%=      5-min Rain = 0
KME1 130144Z 03001KT 11/M04 A3024 RMK A01 T01051042  RH  035%=      5-min Rain = 0
KME1 130145Z 02001KT 11/M04 A3024 RMK A01 T01051042  RH  035%=      5-min Rain = 0
KME1 130146Z 01001KT 11/M04 A3024 RMK A01 T01051042  RH  035%=      5-min Rain = 0
KME1 130147Z 02001KT 10/M04 A3024 RMK A01 T01041042  RH  036%=      5-min Rain = 0
KME1 130148Z 02001KT 10/M04 A3024 RMK A01 T01021042  RH  036%=      5-min Rain = 0
KME1 130149Z 02001KT 10/M04 A3024 RMK A01 T00981042  RH  037%=      5-min Rain = 0
KME1 130150Z 01001KT 10/M04 A3024 RMK A01 T00951042  RH  038%=      5-min Rain = 0
KME1 130151Z 02001KT 09/M04 A3024 RMK A01 T00921043  RH  038%=      5-min Rain = 0
KME1 130152Z 02001KT 09/M04 A3024 RMK A01 T00911042  RH  039%=      5-min Rain = 0
KME1 130153Z 01001KT 09/M04 A3024 RMK A01 T00901042  RH  039%=      5-min Rain = 0
KME1 130154Z 01001KT 09/M04 A3024 RMK A01 T00881040  RH  040%=      5-min Rain = 0
KME1 130155Z 01001KT 09/M04 A3024 RMK A01 T00851040  RH  041%=      5-min Rain = 0
KME1 130156Z 00001KT 08/M04 A3025 RMK A01 T00841040  RH  042%=      5-min Rain = 0
KME1 130157Z 00001KT 08/M04 A3024 RMK A01 T00821040  RH  042%=      5-min Rain = 0
KME1 130158Z 00001KT 08/M04 A3024 RMK A01 T00821040  RH  042%=      5-min Rain = 0
KME1 130159Z 00001KT 08/M04 A3024 RMK A01 T00801041  RH  042%=      5-min Rain = 0
KME1 130200Z 00001KT 08/M04 A3024 RMK A01 T00791041  RH  042%=      5-min Rain = 0
KME1 130201Z 36001KT 08/M04 A3024 RMK A01 T00781041  RH  043%=      5-min Rain = 0
KME1 130202Z 00001KT 08/M04 A3024 RMK A01 T00761041  RH  043%=      5-min Rain = 0
KME1 130203Z 00001KT 07/M04 A3024 RMK A01 T00741041  RH  044%=      5-min Rain = 0
KME1 130204Z 00001KT 07/M04 A3024 RMK A01 T00731040  RH  044%=      5-min Rain = 0
KME1 130205Z 00001KT 07/M04 A3024 RMK A01 T00721041  RH  045%=      5-min Rain = 0
KME1 130206Z 00001KT 07/M04 A3024 RMK A01 T00711041  RH  045%=      5-min Rain = 0
KME1 130207Z 00001KT 07/M04 A3024 RMK A01 T00711041  RH  045%=      5-min Rain = 0
KME1 130208Z 00001KT 07/M04 A3024 RMK A01 T00701041  RH  045%=      5-min Rain = 0
KME1 130209Z 00001KT 07/M04 A3024 RMK A01 T00701041  RH  045%=      5-min Rain = 0
KME1 130210Z 00001KT 07/M04 A3024 RMK A01 T00691041  RH  045%=      5-min Rain = 0
KME1 130211Z 00001KT 07/M04 A3024 RMK A01 T00691041  RH  045%=      5-min Rain = 0
KME1 130212Z 00001KT 07/M04 A3025 RMK A01 T00691041  RH  045%=      5-min Rain = 0
KME1 130213Z 00001KT 07/M04 A3024 RMK A01 T00681041  RH  045%=      5-min Rain = 0
KME1 130214Z 00001KT 07/M04 A3024 RMK A01 T00681042  RH  045%=      5-min Rain = 0
KME1 130215Z 00001KT 07/M04 A3024 RMK A01 T00681042  RH  045%=      5-min Rain = 0
KME1 130216Z 00001KT 07/M04 A3024 RMK A01 T00681043  RH  045%=      5-min Rain = 0
KME1 130217Z 00001KT 07/M04 A3024 RMK A01 T00681043  RH  045%=      5-min Rain = 0
KME1 130218Z 36001KT 07/M04 A3024 RMK A01 T00681043  RH  045%=      5-min Rain = 0
KME1 130219Z 35001KT 07/M04 A3025 RMK A01 T00691043  RH  045%=      5-min Rain = 0
KME1 130220Z 35000KT 07/M04 A3025 RMK A01 T00691044  RH  044%=      5-min Rain = 0
KME1 130221Z 35000KT 07/M04 A3025 RMK A01 T00691044  RH  045%=      5-min Rain = 0
KME1 130222Z 00000KT 07/M04 A3025 RMK A01 T00681043  RH  045%=      5-min Rain = 0
KME1 130223Z 00000KT 07/M04 A3025 RMK A01 T00661043  RH  046%=      5-min Rain = 0
KME1 130224Z 00000KT 06/M04 A3025 RMK A01 T00641043  RH  046%=      5-min Rain = 0
KME1 130225Z 00000KT 06/M04 A3025 RMK A01 T00611044  RH  047%=      5-min Rain = 0
KME1 130226Z 00000KT 06/M04 A3025 RMK A01 T00601043  RH  048%=      5-min Rain = 0
KME1 130227Z 00000KT 06/M04 A3025 RMK A01 T00591043  RH  048%=      5-min Rain = 0
KME1 130228Z 00000KT 06/M04 A3025 RMK A01 T00591042  RH  048%=      5-min Rain = 0
KME1 130229Z 00000KT 06/M04 A3025 RMK A01 T00581042  RH  049%=      5-min Rain = 0
KME1 130230Z 00000KT 06/M04 A3025 RMK A01 T00571042  RH  049%=      5-min Rain = 0
KME1 130231Z 00000KT 06/M04 A3025 RMK A01 T00561042  RH  049%=      5-min Rain = 0
KME1 130232Z 00000KT 06/M04 A3025 RMK A01 T00551042  RH  049%=      5-min Rain = 0
KME1 130233Z 00000KT 05/M04 A3025 RMK A01 T00541043  RH  049%=      5-min Rain = 0
KME1 130234Z 00000KT 05/M04 A3025 RMK A01 T00531043  RH  050%=      5-min Rain = 0
KME1 130235Z 00000KT 05/M04 A3025 RMK A01 T00531043  RH  050%=      5-min Rain = 0
KME1 130236Z 10000KT 05/M04 A3025 RMK A01 T00521043  RH  050%=      5-min Rain = 0
KME1 130237Z 09001KT 05/M04 A3025 RMK A01 T00511042  RH  051%=      5-min Rain = 0
KME1 130238Z 09000KT 05/M04 A3025 RMK A01 T00501043  RH  051%=      5-min Rain = 0
KME1 130239Z 09001KT 05/M04 A3025 RMK A01 T00481042  RH  052%=      5-min Rain = 0
KME1 130240Z 09001KT 05/M04 A3025 RMK A01 T00471042  RH  052%=      5-min Rain = 0
KME1 130241Z 09001KT 05/M04 A3025 RMK A01 T00461042  RH  053%=      5-min Rain = 0
KME1 130242Z 09001KT 05/M04 A3025 RMK A01 T00461042  RH  053%=      5-min Rain = 0
KME1 130243Z 10001KT 05/M04 A3025 RMK A01 T00461041  RH  053%=      5-min Rain = 0
KME1 130244Z 10001KT 05/M04 A3025 RMK A01 T00461040  RH  054%=      5-min Rain = 0
KME1 130245Z 10001KT 05/M04 A3025 RMK A01 T00461040  RH  053%=      5-min Rain = 0
KME1 130246Z 10001KT 05/M04 A3025 RMK A01 T00461041  RH  053%=      5-min Rain = 0
KME1 130247Z 10000KT 05/M04 A3025 RMK A01 T00461041  RH  053%=      5-min Rain = 0
KME1 130248Z 00000KT 05/M04 A3025 RMK A01 T00461042  RH  053%=      5-min Rain = 0
KME1 130249Z 00000KT 05/M04 A3025 RMK A01 T00461042  RH  053%=      5-min Rain = 0
KME1 130250Z 00000KT 05/M04 A3025 RMK A01 T00461042  RH  053%=      5-min Rain = 0
KME1 130251Z 00000KT 05/M04 A3025 RMK A01 T00471043  RH  052%=      5-min Rain = 0
KME1 130252Z 00000KT 05/M04 A3025 RMK A01 T00471043  RH  052%=      5-min Rain = 0
KME1 130253Z 00000KT 05/M04 A3025 RMK A01 T00471043  RH  052%=      5-min Rain = 0
KME1 130254Z 00000KT 05/M04 A3025 RMK A01 T00461043  RH  052%=      5-min Rain = 0
KME1 130255Z 00000KT 05/M04 A3025 RMK A01 T00451043  RH  053%=      5-min Rain = 0
KME1 130256Z 00000KT 04/M04 A3025 RMK A01 T00441043  RH  053%=      5-min Rain = 0
KME1 130257Z 00000KT 04/M04 A3025 RMK A01 T00431043  RH  053%=      5-min Rain = 0
KME1 130258Z 00000KT 04/M04 A3025 RMK A01 T00431042  RH  054%=      5-min Rain = 0
KME1 130259Z 00000KT 04/M04 A3025 RMK A01 T00421042  RH  054%=      5-min Rain = 0
KME1 130300Z 00000KT 04/M04 A3025 RMK A01 T00411042  RH  055%=      5-min Rain = 0
KME1 130301Z 00000KT 04/M04 A3025 RMK A01 T00411041  RH  055%=      5-min Rain = 0
KME1 130302Z 00000KT 04/M04 A3025 RMK A01 T00411041  RH  055%=      5-min Rain = 0
KME1 130303Z 00000KT 04/M04 A3025 RMK A01 T00411042  RH  055%=      5-min Rain = 0
KME1 130304Z 00000KT 04/M04 A3025 RMK A01 T00401043  RH  055%=      5-min Rain = 0
KME1 130305Z 00000KT 04/M04 A3025 RMK A01 T00401043  RH  055%=      5-min Rain = 0
KME1 130306Z 00000KT 04/M04 A3025 RMK A01 T00391043  RH  055%=      5-min Rain = 0
KME1 130307Z 00000KT 04/M04 A3025 RMK A01 T00391043  RH  055%=      5-min Rain = 0
KME1 130308Z 00000KT 04/M04 A3025 RMK A01 T00391043  RH  055%=      5-min Rain = 0
KME1 130309Z 00000KT 04/M04 A3025 RMK A01 T00381043  RH  055%=      5-min Rain = 0
KME1 130310Z 00000KT 04/M04 A3025 RMK A01 T00381042  RH  056%=      5-min Rain = 0
KME1 130311Z 00000KT 04/M04 A3025 RMK A01 T00381042  RH  056%=      5-min Rain = 0
KME1 130312Z 00000KT 04/M04 A3025 RMK A01 T00371042  RH  056%=      5-min Rain = 0
KME1 130313Z 00000KT 04/M04 A3025 RMK A01 T00361043  RH  056%=      5-min Rain = 0
KME1 130314Z 00000KT 04/M04 A3025 RMK A01 T00351043  RH  056%=      5-min Rain = 0
KME1 130315Z 00000KT 04/M04 A3025 RMK A01 T00351044  RH  056%=      5-min Rain = 0
KME1 130316Z 00000KT 03/M04 A3025 RMK A01 T00341044  RH  056%=      5-min Rain = 0
KME1 130317Z 00000KT 03/M05 A3025 RMK A01 T00341045  RH  056%=      5-min Rain = 0
KME1 130318Z 00000KT 03/M05 A3025 RMK A01 T00331045  RH  056%=      5-min Rain = 0
KME1 130319Z 00000KT 03/M05 A3025 RMK A01 T00321045  RH  057%=      5-min Rain = 0
KME1 130320Z 15000KT 03/M04 A3025 RMK A01 T00311044  RH  058%=      5-min Rain = 0
KME1 130321Z 16001KT 03/M04 A3025 RMK A01 T00301044  RH  058%=      5-min Rain = 0
KME1 130322Z 16001KT 03/M05 A3025 RMK A01 T00291045  RH  058%=      5-min Rain = 0
KME1 130323Z 15001KT 03/M05 A3025 RMK A01 T00291046  RH  058%=      5-min Rain = 0
KME1 130324Z 15001KT 03/M05 A3025 RMK A01 T00281047  RH  058%=      5-min Rain = 0
KME1 130325Z 17001KT 03/M05 A3025 RMK A01 T00281047  RH  058%=      5-min Rain = 0
KME1 130326Z 18001KT 03/M05 A3025 RMK A01 T00281047  RH  058%=      5-min Rain = 0
KME1 130327Z 20001KT 03/M05 A3025 RMK A01 T00271046  RH  058%=      5-min Rain = 0
KME1 130328Z 20001KT 03/M05 A3025 RMK A01 T00271046  RH  059%=      5-min Rain = 0
KME1 130329Z 20002KT 03/M05 A3025 RMK A01 T00271045  RH  059%=      5-min Rain = 0
KME1 130330Z 21001KT 03/M04 A3025 RMK A01 T00271044  RH  059%=      5-min Rain = 0
KME1 130331Z 20001KT 03/M04 A3025 RMK A01 T00271044  RH  059%=      5-min Rain = 0
KME1 130332Z 20001KT 03/M04 A3025 RMK A01 T00281044  RH  059%=      5-min Rain = 0
KME1 130333Z 20001KT 03/M04 A3025 RMK A01 T00291043  RH  059%=      5-min Rain = 0
KME1 130334Z 20001KT 03/M04 A3025 RMK A01 T00291042  RH  060%=      5-min Rain = 0
KME1 130335Z 23000KT 03/M04 A3025 RMK A01 T00291041  RH  060%=      5-min Rain = 0
KME1 130336Z 23000KT 03/M04 A3025 RMK A01 T00291042  RH  060%=      5-min Rain = 0
KME1 130337Z 22001KT 03/M04 A3025 RMK A01 T00291042  RH  059%=      5-min Rain = 0
KME1 130338Z 00000KT 03/M04 A3025 RMK A01 T00291043  RH  059%=      5-min Rain = 0
KME1 130339Z 00000KT 03/M04 A3025 RMK A01 T00291042  RH  059%=      5-min Rain = 0
KME1 130340Z 00000KT 03/M04 A3025 RMK A01 T00291042  RH  060%=      5-min Rain = 0
KME1 130341Z 00000KT 03/M04 A3025 RMK A01 T00281042  RH  060%=      5-min Rain = 0
KME1 130342Z 00000KT 03/M04 A3025 RMK A01 T00281042  RH  060%=      5-min Rain = 0
KME1 130343Z 00000KT 03/M04 A3025 RMK A01 T00281042  RH  060%=      5-min Rain = 0
KME1 130344Z 00000KT 03/M04 A3025 RMK A01 T00281043  RH  060%=      5-min Rain = 0
KME1 130345Z 00000KT 03/M04 A3025 RMK A01 T00281044  RH  059%=      5-min Rain = 0
KME1 130346Z 00000KT 03/M04 A3025 RMK A01 T00281044  RH  059%=      5-min Rain = 0
KME1 130347Z 00000KT 03/M04 A3025 RMK A01 T00291044  RH  059%=      5-min Rain = 0
KME1 130348Z 00000KT 03/M04 A3025 RMK A01 T00281044  RH  059%=      5-min Rain = 0
KME1 130349Z 00000KT 03/M04 A3025 RMK A01 T00291044  RH  059%=      5-min Rain = 0
KME1 130350Z 00000KT 03/M04 A3025 RMK A01 T00281044  RH  059%=      5-min Rain = 0
KME1 130351Z 00000KT 03/M04 A3025 RMK A01 T00281044  RH  059%=      5-min Rain = 0
KME1 130352Z 00000KT 03/M04 A3025 RMK A01 T00281043  RH  059%=      5-min Rain = 0
KME1 130353Z 00000KT 03/M04 A3025 RMK A01 T00281044  RH  059%=      5-min Rain = 0
KME1 130354Z 00000KT 03/M04 A3026 RMK A01 T00281044  RH  059%=      5-min Rain = 0
KME1 130355Z 00000KT 03/M04 A3026 RMK A01 T00271044  RH  059%=      5-min Rain = 0
KME1 130356Z 00000KT 03/M04 A3026 RMK A01 T00271044  RH  060%=      5-min Rain = 0
KME1 130357Z 00000KT 03/M04 A3026 RMK A01 T00261044  RH  060%=      5-min Rain = 0
KME1 130358Z 28000KT 03/M05 A3026 RMK A01 T00251045  RH  060%=      5-min Rain = 0
KME1 130359Z 28000KT 03/M05 A3026 RMK A01 T00251045  RH  060%=      5-min Rain = 0
KME1 130400Z 00000KT 02/M05 A3026 RMK A01 T00241045  RH  060%=      5-min Rain = 0
KME1 130401Z 00000KT 02/M05 A3026 RMK A01 T00241045  RH  061%=      5-min Rain = 0
KME1 130402Z 00000KT 02/M05 A3026 RMK A01 T00231045  RH  061%=      5-min Rain = 0
KME1 130403Z 00000KT 02/M05 A3026 RMK A01 T00231046  RH  061%=      5-min Rain = 0
KME1 130404Z 00000KT 02/M05 A3026 RMK A01 T00221045  RH  061%=      5-min Rain = 0
KME1 130405Z 00000KT 02/M05 A3026 RMK A01 T00211046  RH  062%=      5-min Rain = 0
KME1 130406Z 00000KT 02/M05 A3026 RMK A01 T00201046  RH  062%=      5-min Rain = 0
KME1 130407Z 00000KT 02/M05 A3026 RMK A01 T00191046  RH  062%=      5-min Rain = 0
KME1 130408Z 33000KT 02/M05 A3026 RMK A01 T00191046  RH  062%=      5-min Rain = 0
KME1 130409Z 33001KT 02/M05 A3026 RMK A01 T00181046  RH  062%=      5-min Rain = 0
KME1 130410Z 33001KT 02/M05 A3026 RMK A01 T00181046  RH  063%=      5-min Rain = 0
KME1 130411Z 32002KT 02/M05 A3026 RMK A01 T00171046  RH  063%=      5-min Rain = 0
KME1 130412Z 33001KT 02/M05 A3026 RMK A01 T00151046  RH  064%=      5-min Rain = 0
KME1 130413Z 31001KT 02/M05 A3026 RMK A01 T00151046  RH  064%=      5-min Rain = 0
KME1 130414Z 31001KT 01/M05 A3026 RMK A01 T00141046  RH  065%=      5-min Rain = 0
KME1 130415Z 30001KT 01/M05 A3025 RMK A01 T00131046  RH  065%=      5-min Rain = 0
KME1 130416Z 23001KT 01/M05 A3025 RMK A01 T00131046  RH  065%=      5-min Rain = 0
KME1 130417Z 17001KT 01/M05 A3025 RMK A01 T00131045  RH  065%=      5-min Rain = 0
KME1 130418Z 17002KT 01/M05 A3025 RMK A01 T00131046  RH  065%=      5-min Rain = 0
KME1 130419Z 17001KT 01/M05 A3025 RMK A01 T00131046  RH  065%=      5-min Rain = 0
KME1 130420Z 17002KT 01/M05 A3025 RMK A01 T00131046  RH  065%=      5-min Rain = 0
KME1 130421Z 17002KT 01/M05 A3025 RMK A01 T00131047  RH  064%=      5-min Rain = 0
KME1 130422Z 17002KT 01/M05 A3025 RMK A01 T00141047  RH  064%=      5-min Rain = 0
KME1 130423Z 17002KT 01/M05 A3026 RMK A01 T00141047  RH  064%=      5-min Rain = 0
KME1 130424Z 17002KT 01/M05 A3026 RMK A01 T00141047  RH  064%=      5-min Rain = 0
KME1 130425Z 17002KT 02/M05 A3026 RMK A01 T00151047  RH  063%=      5-min Rain = 0
KME1 130426Z 17002KT 02/M05 A3026 RMK A01 T00151048  RH  063%=      5-min Rain = 0
KME1 130427Z 18002KT 02/M05 A3026 RMK A01 T00161048  RH  063%=      5-min Rain = 0
KME1 130428Z 18002KT 02/M05 A3026 RMK A01 T00181047  RH  062%=      5-min Rain = 0
KME1 130429Z 18002KT 02/M05 A3026 RMK A01 T00201047  RH  061%=      5-min Rain = 0
KME1 130430Z 18002KT 02/M05 A3026 RMK A01 T00211048  RH  060%=      5-min Rain = 0
KME1 130431Z 19002KT 02/M05 A3026 RMK A01 T00211049  RH  060%=      5-min Rain = 0
KME1 130432Z 20002KT 02/M05 A3026 RMK A01 T00211049  RH  060%=      5-min Rain = 0
KME1 130433Z 21002KT 02/M05 A3026 RMK A01 T00201049  RH  060%=      5-min Rain = 0
KME1 130434Z 21002KT 02/M05 A3026 RMK A01 T00201049  RH  060%=      5-min Rain = 0
KME1 130435Z 21002KT 02/M05 A3026 RMK A01 T00191049  RH  061%=      5-min Rain = 0
KME1 130436Z 22002KT 02/M05 A3026 RMK A01 T00191049  RH  061%=      5-min Rain = 0
KME1 130437Z 22002KT 02/M05 A3026 RMK A01 T00181049  RH  061%=      5-min Rain = 0
KME1 130438Z 22002KT 02/M05 A3026 RMK A01 T00171049  RH  061%=      5-min Rain = 0
KME1 130439Z 21002KT 02/M05 A3026 RMK A01 T00171048  RH  062%=      5-min Rain = 0
KME1 130440Z 21001KT 02/M05 A3026 RMK A01 T00171047  RH  062%=      5-min Rain = 0
KME1 130441Z 22001KT 02/M05 A3026 RMK A01 T00161046  RH  063%=      5-min Rain = 0
KME1 130442Z 21001KT 02/M05 A3026 RMK A01 T00171045  RH  063%=      5-min Rain = 0
KME1 130443Z 21001KT 02/M05 A3026 RMK A01 T00191045  RH  063%=      5-min Rain = 0
KME1 130444Z 21001KT 02/M04 A3026 RMK A01 T00201044  RH  063%=      5-min Rain = 0
KME1 130445Z 21001KT 02/M04 A3026 RMK A01 T00201044  RH  063%=      5-min Rain = 0
KME1 130446Z 21001KT 02/M04 A3026 RMK A01 T00201044  RH  063%=      5-min Rain = 0
KME1 130447Z 21001KT 02/M04 A3026 RMK A01 T00211044  RH  063%=      5-min Rain = 0
KME1 130448Z 21001KT 02/M04 A3026 RMK A01 T00211043  RH  063%=      5-min Rain = 0
KME1 130449Z 20001KT 02/M04 A3026 RMK A01 T00211043  RH  063%=      5-min Rain = 0
KME1 130450Z 20000KT 02/M04 A3026 RMK A01 T00201043  RH  063%=      5-min Rain = 0
KME1 130451Z 00000KT 02/M04 A3026 RMK A01 T00201043  RH  063%=      5-min Rain = 0
KME1 130452Z 00000KT 02/M04 A3026 RMK A01 T00201043  RH  063%=      5-min Rain = 0
KME1 130453Z 00000KT 02/M04 A3026 RMK A01 T00201043  RH  063%=      5-min Rain = 0
KME1 130454Z 00000KT 02/M04 A3026 RMK A01 T00191043  RH  063%=      5-min Rain = 0
KME1 130455Z 00000KT 02/M05 A3026 RMK A01 T00191045  RH  063%=      5-min Rain = 0
KME1 130456Z 00000KT 02/M04 A3026 RMK A01 T00181044  RH  063%=      5-min Rain = 0
KME1 130457Z 00000KT 02/M04 A3026 RMK A01 T00181043  RH  064%=      5-min Rain = 0
KME1 130458Z 00000KT 02/M04 A3026 RMK A01 T00171043  RH  064%=      5-min Rain = 0
KME1 130459Z 00000KT 02/M04 A3026 RMK A01 T00171044  RH  064%=      5-min Rain = 0

Page generated in 0.1133 seconds.